Time,TemperatureF,DewpointF,PressureIn,WindDirection,WindDirectionDegrees,WindSpeedMPH,WindSpeedGustMPH,Humidity,HourlyPrecipIn,Conditions,Clouds,dailyrainin,SolarRadiationWatts/m^2,SoftwareType,DateUTC
2013-01-20 00:01:00,49.9,46.5,29.61,East,86,3.5,3.5,88,0.00,RA,,0.00,0.0,WeatherDisplay:10.37,2013-01-19 23:01:00,
2013-01-20 00:05:00,50.0,46.6,29.61,East,85,5.8,5.8,88,0.00,RA,,0.00,0.0,WeatherDisplay:10.37,2013-01-19 23:05:00,
2013-01-20 00:07:00,50.0,46.6,29.61,East,85,0.0,0.0,88,0.00,RA,,0.00,0.0,WeatherDisplay:10.37,2013-01-19 23:07:00,
2013-01-20 00:10:00,50.1,46.7,29.61,East,85,2.3,0.0,88,0.00,RA,,0.00,0.0,WeatherDisplay:10.37,2013-01-19 23:10:00,
2013-01-20 00:12:00,50.1,46.7,29.60,East,85,2.0,0.0,88,0.00,CLR,,0.00,0.0,WeatherDisplay:10.37,2013-01-19 23:12:00,
2013-01-20 00:15:00,50.2,46.8,29.60,East,85,1.1,0.0,88,0.00,CLR,,0.00,0.0,WeatherDisplay:10.37,2013-01-19 23:15:00,
2013-01-20 00:17:00,50.2,46.8,29.60,East,85,2.3,2.3,88,0.00,CLR,,0.00,0.0,WeatherDisplay:10.37,2013-01-19 23:17:00,
2013-01-20 00:20:00,50.2,46.8,29.60,East,85,3.5,3.5,88,0.00,CLR,,0.00,0.0,WeatherDisplay:10.37,2013-01-19 23:20:00,
2013-01-20 00:22:00,50.2,46.8,29.60,East,84,3.5,3.5,88,0.00,CLR,,0.00,0.0,WeatherDisplay:10.37,2013-01-19 23:22:00,
2013-01-20 00:25:00,50.2,46.8,29.60,East,84,3.5,3.5,88,0.00,CLR,,0.00,0.0,WeatherDisplay:10.37,2013-01-19 23:25:00,
2013-01-20 00:27:00,50.3,46.9,29.60,East,84,2.3,2.3,88,0.00,CLR,,0.00,0.0,WeatherDisplay:10.37,2013-01-19 23:27:00,
2013-01-20 00:30:00,50.3,46.9,29.60,East,84,0.0,0.0,88,0.00,CLR,,0.00,0.0,WeatherDisplay:10.37,2013-01-19 23:30:00,
2013-01-20 00:32:00,50.3,46.9,29.60,East,84,4.6,4.6,88,0.00,CLR,,0.00,0.0,WeatherDisplay:10.37,2013-01-19 23:32:00,
2013-01-20 00:35:00,50.4,47.0,29.60,East,84,3.5,3.5,88,0.00,CLR,,0.00,0.0,WeatherDisplay:10.37,2013-01-19 23:35:00,
2013-01-20 00:37:00,50.5,47.1,29.60,East,84,1.1,1.1,88,0.00,CLR,,0.00,0.0,WeatherDisplay:10.37,2013-01-19 23:37:00,
2013-01-20 00:40:00,50.6,47.2,29.60,East,84,0.0,0.0,88,0.00,CLR,,0.00,0.0,WeatherDisplay:10.37,2013-01-19 23:40:00,
2013-01-20 00:43:00,50.7,47.3,29.60,East,84,0.0,0.0,88,0.00,CLR,,0.00,0.0,WeatherDisplay:10.37,2013-01-19 23:43:00,
2013-01-20 00:45:00,50.7,47.3,29.60,East,84,0.0,0.0,88,0.00,CLR,,0.00,0.0,WeatherDisplay:10.37,2013-01-19 23:45:00,
2013-01-20 00:48:00,50.7,47.3,29.60,East,84,0.0,0.0,88,0.00,CLR,,0.00,0.0,WeatherDisplay:10.37,2013-01-19 23:48:00,
2013-01-20 00:50:00,50.7,47.3,29.60,East,84,2.3,2.3,88,0.00,CLR,,0.00,0.0,WeatherDisplay:10.37,2013-01-19 23:50:00,
2013-01-20 00:53:00,50.7,47.3,29.60,East,84,0.0,0.0,88,0.00,CLR,,0.00,0.0,WeatherDisplay:10.37,2013-01-19 23:53:00,
2013-01-20 00:57:00,50.7,47.3,29.60,East,84,2.3,2.3,88,0.00,CLR,,0.00,0.0,WeatherDisplay:10.37,2013-01-19 23:57:00,
2013-01-20 00:58:00,50.7,47.3,29.60,East,84,2.3,2.3,88,0.00,CLR,,0.00,0.0,WeatherDisplay:10.37,2013-01-19 23:58:00,
2013-01-20 01:02:00,50.7,47.3,29.60,East,84,1.1,0.0,88,0.00,CLR,,0.00,0.0,WeatherDisplay:10.37,2013-01-20 00:02:00,
2013-01-20 01:04:00,50.7,47.3,29.60,East,84,2.3,2.3,88,0.00,CLR,,0.00,0.0,WeatherDisplay:10.37,2013-01-20 00:04:00,
2013-01-20 01:07:00,50.8,47.4,29.60,East,84,1.1,1.1,88,0.01,RA,,0.01,0.0,WeatherDisplay:10.37,2013-01-20 00:07:00,
2013-01-20 01:09:00,50.8,47.4,29.60,East,84,1.0,1.0,88,0.01,RA,,0.01,0.0,WeatherDisplay:10.37,2013-01-20 00:09:00,
2013-01-20 01:13:00,50.8,47.4,29.60,East,84,3.5,3.5,88,0.01,RA,,0.01,0.0,WeatherDisplay:10.37,2013-01-20 00:13:00,
2013-01-20 01:15:00,50.8,47.4,29.59,East,84,2.3,2.3,88,0.01,RA,,0.01,0.0,WeatherDisplay:10.37,2013-01-20 00:15:00,
2013-01-20 01:18:00,50.8,47.4,29.60,East,82,3.5,3.5,88,0.01,,,0.01,0.0,WeatherDisplay:10.37,2013-01-20 00:18:00,
2013-01-20 01:20:00,50.7,47.3,29.60,East,82,0.0,0.0,88,0.01,CLR,,0.01,0.0,WeatherDisplay:10.37,2013-01-20 00:20:00,
2013-01-20 01:23:00,50.8,47.4,29.60,ENE,70,3.5,3.5,88,0.01,CLR,,0.01,0.0,WeatherDisplay:10.37,2013-01-20 00:23:00,
2013-01-20 01:25:00,50.8,47.4,29.59,ENE,70,3.5,3.5,88,0.01,CLR,,0.02,0.0,WeatherDisplay:10.37,2013-01-20 00:25:00,
2013-01-20 01:28:00,50.8,47.4,29.60,ENE,70,0.0,0.0,88,0.02,RA,,0.02,0.0,WeatherDisplay:10.37,2013-01-20 00:28:00,
2013-01-20 01:30:00,50.7,47.3,29.60,ENE,70,0.0,0.0,88,0.02,RA,,0.02,0.0,WeatherDisplay:10.37,2013-01-20 00:30:00,
2013-01-20 01:33:00,50.6,47.2,29.59,ENE,70,0.0,0.0,88,0.02,RA,,0.02,0.0,WeatherDisplay:10.37,2013-01-20 00:33:00,
2013-01-20 01:35:00,50.6,47.2,29.60,ENE,70,1.1,1.1,88,0.02,RA,,0.02,0.0,WeatherDisplay:10.37,2013-01-20 00:35:00,
2013-01-20 01:38:00,50.5,47.1,29.60,ENE,70,0.0,0.1,88,0.02,CLR,,0.02,0.0,WeatherDisplay:10.37,2013-01-20 00:38:00,
2013-01-20 01:40:00,50.5,47.1,29.60,ENE,70,3.5,3.5,88,0.02,CLR,,0.02,0.0,WeatherDisplay:10.37,2013-01-20 00:40:00,
2013-01-20 01:44:00,50.5,47.1,29.60,ENE,70,3.5,3.5,88,0.02,CLR,,0.02,0.0,WeatherDisplay:10.37,2013-01-20 00:44:00,
2013-01-20 01:46:00,50.5,47.1,29.60,ENE,70,2.3,2.3,88,0.02,CLR,,0.02,0.0,WeatherDisplay:10.37,2013-01-20 00:46:00,
2013-01-20 01:49:00,50.5,47.1,29.60,ENE,70,1.1,0.0,88,0.02,CLR,,0.02,0.0,WeatherDisplay:10.37,2013-01-20 00:49:00,
2013-01-20 01:51:00,50.6,47.2,29.60,ENE,70,0.0,0.0,88,0.02,CLR,,0.02,0.0,WeatherDisplay:10.37,2013-01-20 00:51:00,
2013-01-20 01:54:00,50.6,47.2,29.60,ENE,70,0.0,0.0,88,0.03,RA,,0.03,0.0,WeatherDisplay:10.37,2013-01-20 00:54:00,
2013-01-20 01:56:00,50.6,47.2,29.59,ENE,70,3.5,3.5,88,0.03,RA,,0.03,0.0,WeatherDisplay:10.37,2013-01-20 00:56:00,
2013-01-20 01:59:00,50.5,47.1,29.60,ENE,70,2.0,2.0,88,0.03,RA,,0.03,0.0,WeatherDisplay:10.37,2013-01-20 00:59:00,
2013-01-20 02:01:00,50.5,47.1,29.60,ENE,70,2.3,2.3,88,0.03,RA,,0.03,0.0,WeatherDisplay:10.37,2013-01-20 01:01:00,
2013-01-20 02:04:00,50.6,47.2,29.60,ENE,70,1.1,0.0,88,0.03,,,0.03,0.0,WeatherDisplay:10.37,2013-01-20 01:04:00,
2013-01-20 02:06:00,50.6,47.5,29.60,ENE,70,1.1,0.0,89,0.02,CLR,,0.03,0.0,WeatherDisplay:10.37,2013-01-20 01:06:00,
2013-01-20 02:10:00,50.5,47.4,29.60,ENE,69,3.5,3.5,89,0.02,CLR,,0.04,0.0,WeatherDisplay:10.37,2013-01-20 01:10:00,
2013-01-20 02:12:00,50.5,47.4,29.60,ENE,69,3.0,3.0,89,0.03,RA,,0.04,0.0,WeatherDisplay:10.37,2013-01-20 01:12:00,
2013-01-20 02:16:00,50.5,47.4,29.59,ENE,69,3.5,3.5,89,0.03,RA,,0.04,0.0,WeatherDisplay:10.37,2013-01-20 01:16:00,
2013-01-20 02:17:00,50.5,47.4,29.60,ENE,69,2.3,2.3,89,0.03,RA,,0.04,0.0,WeatherDisplay:10.37,2013-01-20 01:17:00,
2013-01-20 02:21:00,50.5,47.4,29.60,ENE,69,1.1,0.0,89,0.03,,,0.04,0.0,WeatherDisplay:10.37,2013-01-20 01:21:00,
2013-01-20 02:22:00,50.6,47.5,29.60,ENE,69,2.0,2.0,89,0.03,,,0.04,0.0,WeatherDisplay:10.37,2013-01-20 01:22:00,
2013-01-20 02:27:00,50.7,47.6,29.59,ENE,69,3.5,3.5,89,0.02,CLR,,0.04,0.0,WeatherDisplay:10.37,2013-01-20 01:27:00,
2013-01-20 02:32:00,50.6,47.5,29.60,ENE,69,3.5,3.5,89,0.02,CLR,,0.05,0.0,WeatherDisplay:10.37,2013-01-20 01:32:00,
2013-01-20 02:33:00,50.6,47.5,29.60,ENE,69,3.5,3.5,89,0.03,RA,,0.05,0.0,WeatherDisplay:10.37,2013-01-20 01:33:00,
2013-01-20 02:37:00,50.6,47.5,29.60,ENE,69,2.3,2.3,89,0.03,RA,,0.05,0.0,WeatherDisplay:10.37,2013-01-20 01:37:00,
2013-01-20 02:38:00,50.6,47.5,29.60,ENE,69,3.5,3.5,89,0.03,RA,,0.05,0.0,WeatherDisplay:10.37,2013-01-20 01:38:00,
2013-01-20 02:42:00,50.8,47.7,29.60,ENE,69,1.1,0.0,89,0.03,,,0.05,0.0,WeatherDisplay:10.37,2013-01-20 01:42:00,
2013-01-20 02:43:00,50.8,47.7,29.60,ENE,69,1.1,0.0,89,0.03,,,0.05,0.0,WeatherDisplay:10.37,2013-01-20 01:43:00,
2013-01-20 02:48:00,50.8,47.7,29.59,ENE,69,2.3,2.3,89,0.03,CLR,,0.05,0.0,WeatherDisplay:10.37,2013-01-20 01:48:00,
2013-01-20 02:49:00,50.8,47.7,29.60,ENE,69,3.5,3.5,89,0.03,CLR,,0.05,0.0,WeatherDisplay:10.37,2013-01-20 01:49:00,
2013-01-20 02:54:00,50.7,47.6,29.59,ENE,70,3.5,3.5,89,0.02,CLR,,0.05,0.0,WeatherDisplay:10.37,2013-01-20 01:54:00,
2013-01-20 02:59:00,50.6,47.5,29.59,East,96,2.0,2.0,89,0.02,CLR,,0.05,0.0,WeatherDisplay:10.37,2013-01-20 01:59:00,
2013-01-20 03:00:00,50.6,47.5,29.59,East,96,3.5,3.5,89,0.02,CLR,,0.05,0.0,WeatherDisplay:10.37,2013-01-20 02:00:00,
2013-01-20 03:04:00,50.7,47.6,29.59,East,96,2.3,2.3,89,0.02,CLR,,0.05,0.0,WeatherDisplay:10.37,2013-01-20 02:04:00,
2013-01-20 03:05:00,50.7,47.6,29.58,East,96,2.3,2.3,89,0.02,CLR,,0.05,0.0,WeatherDisplay:10.37,2013-01-20 02:05:00,
2013-01-20 03:09:00,50.8,48.0,29.58,East,93,4.6,4.6,90,0.02,CLR,,0.05,0.0,WeatherDisplay:10.37,2013-01-20 02:09:00,
2013-01-20 03:10:00,50.8,48.0,29.58,East,93,3.5,3.5,90,0.02,CLR,,0.05,0.0,WeatherDisplay:10.37,2013-01-20 02:10:00,
2013-01-20 03:14:00,50.8,48.0,29.58,East,92,5.0,5.0,90,0.01,CLR,,0.05,0.0,WeatherDisplay:10.37,2013-01-20 02:14:00,
2013-01-20 03:15:00,50.8,48.0,29.58,East,92,4.6,4.6,90,0.01,CLR,,0.05,0.0,WeatherDisplay:10.37,2013-01-20 02:15:00,
2013-01-20 03:20:00,50.9,48.1,29.58,East,92,3.5,3.5,90,0.01,CLR,,0.05,0.0,WeatherDisplay:10.37,2013-01-20 02:20:00,
2013-01-20 03:25:00,51.1,48.3,29.58,East,88,4.6,4.6,90,0.01,CLR,,0.05,0.0,WeatherDisplay:10.37,2013-01-20 02:25:00,
2013-01-20 03:26:00,51.1,48.3,29.58,East,88,3.5,3.5,90,0.01,CLR,,0.05,0.0,WeatherDisplay:10.37,2013-01-20 02:26:00,
2013-01-20 03:30:00,51.3,48.5,29.58,East,85,1.1,0.0,90,0.01,CLR,,0.05,0.0,WeatherDisplay:10.37,2013-01-20 02:30:00,
2013-01-20 03:31:00,51.3,48.5,29.58,East,85,2.3,2.3,90,0.01,CLR,,0.05,0.0,WeatherDisplay:10.37,2013-01-20 02:31:00,
2013-01-20 03:35:00,51.4,48.6,29.58,East,85,2.3,2.3,90,0.00,CLR,,0.05,0.0,WeatherDisplay:10.37,2013-01-20 02:35:00,
2013-01-20 03:37:00,51.4,48.6,29.57,East,85,3.0,3.0,90,0.00,CLR,,0.05,0.0,WeatherDisplay:10.37,2013-01-20 02:37:00,
2013-01-20 03:40:00,51.5,48.7,29.57,East,85,1.1,1.1,90,0.00,CLR,,0.05,0.0,WeatherDisplay:10.37,2013-01-20 02:40:00,
2013-01-20 03:42:00,51.5,48.7,29.57,East,85,3.5,3.5,90,0.00,CLR,,0.05,0.0,WeatherDisplay:10.37,2013-01-20 02:42:00,
2013-01-20 03:45:00,51.7,48.9,29.57,East,85,3.5,3.5,90,0.00,CLR,,0.05,0.0,WeatherDisplay:10.37,2013-01-20 02:45:00,
2013-01-20 03:47:00,51.8,49.0,29.57,East,85,3.5,3.5,90,0.00,CLR,,0.05,0.0,WeatherDisplay:10.37,2013-01-20 02:47:00,
2013-01-20 03:50:00,51.8,49.0,29.57,East,85,0.0,0.0,90,0.00,CLR,,0.05,0.0,WeatherDisplay:10.37,2013-01-20 02:50:00,
2013-01-20 03:53:00,51.9,49.1,29.57,East,85,0.0,0.0,90,0.00,CLR,,0.05,0.0,WeatherDisplay:10.37,2013-01-20 02:53:00,
2013-01-20 03:55:00,52.0,49.2,29.57,East,85,2.3,2.3,90,0.00,CLR,,0.05,0.0,WeatherDisplay:10.37,2013-01-20 02:55:00,
2013-01-20 03:59:00,52.1,49.3,29.57,East,85,0.0,0.0,90,0.00,CLR,,0.05,0.0,WeatherDisplay:10.37,2013-01-20 02:59:00,
2013-01-20 04:00:00,52.1,49.3,29.57,East,86,0.0,0.2,90,0.00,CLR,,0.05,0.0,WeatherDisplay:10.37,2013-01-20 03:00:00,
2013-01-20 04:04:00,52.2,49.4,29.57,East,86,0.0,0.0,90,0.00,CLR,,0.05,0.0,WeatherDisplay:10.37,2013-01-20 03:04:00,
2013-01-20 04:05:00,52.2,49.4,29.57,East,86,0.0,0.0,90,0.00,CLR,,0.05,0.0,WeatherDisplay:10.37,2013-01-20 03:05:00,
2013-01-20 04:09:00,52.3,49.5,29.57,East,86,1.1,0.0,90,0.00,CLR,,0.05,0.0,WeatherDisplay:10.37,2013-01-20 03:09:00,
2013-01-20 04:11:00,52.3,49.5,29.58,East,86,0.0,0.0,90,0.00,CLR,,0.05,0.0,WeatherDisplay:10.37,2013-01-20 03:11:00,
2013-01-20 04:14:00,52.3,49.5,29.58,East,85,0.0,0.0,90,0.00,CLR,,0.05,0.0,WeatherDisplay:10.37,2013-01-20 03:14:00,
2013-01-20 04:16:00,52.3,49.5,29.58,East,85,3.5,3.5,90,0.01,RA,,0.06,0.0,WeatherDisplay:10.37,2013-01-20 03:16:00,
2013-01-20 04:19:00,52.3,49.5,29.58,NW,317,3.5,3.5,90,0.01,RA,,0.06,0.0,WeatherDisplay:10.37,2013-01-20 03:19:00,
2013-01-20 04:21:00,52.3,49.5,29.58,NW,317,0.0,0.0,90,0.02,RA,,0.07,0.0,WeatherDisplay:10.37,2013-01-20 03:21:00,
2013-01-20 04:24:00,52.4,49.6,29.58,WNW,300,1.1,1.1,90,0.03,RA,,0.08,0.0,WeatherDisplay:10.37,2013-01-20 03:24:00,
2013-01-20 04:26:00,52.5,49.7,29.58,SSE,168,5.8,5.8,90,0.03,RA,,0.08,0.0,WeatherDisplay:10.37,2013-01-20 03:26:00,
2013-01-20 04:31:00,53.0,50.1,29.57,SE,145,8.1,8.1,90,0.03,RA,,0.08,0.0,WeatherDisplay:10.37,2013-01-20 03:31:00,
2013-01-20 04:32:00,53.2,50.3,29.57,SE,144,12.0,12.0,90,0.03,RA,,0.08,0.0,WeatherDisplay:10.37,2013-01-20 03:32:00,
2013-01-20 04:37:00,53.7,50.8,29.57,SE,130,4.6,4.6,90,0.03,CLR,,0.08,0.0,WeatherDisplay:10.37,2013-01-20 03:37:00,
2013-01-20 04:38:00,53.8,50.9,29.57,SE,139,6.0,6.0,90,0.03,CLR,,0.08,0.0,WeatherDisplay:10.37,2013-01-20 03:38:00,
2013-01-20 04:42:00,54.0,50.8,29.57,SE,142,6.0,6.0,89,0.04,RA,,0.09,0.0,WeatherDisplay:10.37,2013-01-20 03:42:00,
2013-01-20 04:43:00,54.0,50.8,29.57,SE,143,4.6,4.6,89,0.04,RA,,0.09,0.0,WeatherDisplay:10.37,2013-01-20 03:43:00,
2013-01-20 04:48:00,54.1,50.9,29.57,SE,138,0.0,0.0,89,0.04,RA,,0.09,0.0,WeatherDisplay:10.37,2013-01-20 03:48:00,
2013-01-20 04:53:00,54.1,50.9,29.57,East,100,5.0,5.0,89,0.04,,,0.09,0.0,WeatherDisplay:10.37,2013-01-20 03:53:00,
2013-01-20 04:58:00,53.9,50.4,29.57,East,96,3.5,3.5,88,0.04,CLR,,0.09,0.0,WeatherDisplay:10.37,2013-01-20 03:58:00,
2013-01-20 04:59:00,53.8,50.3,29.57,East,96,2.3,2.3,88,0.04,CLR,,0.09,0.0,WeatherDisplay:10.37,2013-01-20 03:59:00,
2013-01-20 05:03:00,53.6,50.1,29.57,East,96,2.3,2.3,88,0.04,CLR,,0.09,0.0,WeatherDisplay:10.37,2013-01-20 04:03:00,
2013-01-20 05:04:00,53.6,50.1,29.56,East,96,1.0,1.0,88,0.04,CLR,,0.09,0.0,WeatherDisplay:10.37,2013-01-20 04:04:00,
2013-01-20 05:08:00,53.5,50.0,29.57,East,95,2.0,2.0,88,0.04,CLR,,0.09,0.0,WeatherDisplay:10.37,2013-01-20 04:08:00,
2013-01-20 05:09:00,53.4,49.9,29.56,East,95,2.3,2.3,88,0.04,CLR,,0.09,0.0,WeatherDisplay:10.37,2013-01-20 04:09:00,
2013-01-20 05:13:00,53.3,49.8,29.56,East,91,3.5,3.5,88,0.04,CLR,,0.09,0.0,WeatherDisplay:10.37,2013-01-20 04:13:00,
2013-01-20 05:14:00,53.3,49.8,29.56,East,91,3.5,3.5,88,0.04,CLR,,0.09,0.0,WeatherDisplay:10.37,2013-01-20 04:14:00,
2013-01-20 05:19:00,53.2,49.7,29.56,East,88,4.6,4.6,88,0.03,CLR,,0.09,0.0,WeatherDisplay:10.37,2013-01-20 04:19:00,
2013-01-20 05:24:00,53.1,49.6,29.56,East,82,3.5,3.5,88,0.01,CLR,,0.09,0.0,WeatherDisplay:10.37,2013-01-20 04:24:00,
2013-01-20 05:25:00,53.1,49.6,29.56,East,83,1.1,0.0,88,0.01,CLR,,0.09,0.0,WeatherDisplay:10.37,2013-01-20 04:25:00,
2013-01-20 05:29:00,53.1,49.6,29.56,East,82,3.5,3.5,88,0.01,CLR,,0.09,0.0,WeatherDisplay:10.37,2013-01-20 04:29:00,
2013-01-20 05:31:00,53.0,49.5,29.56,ENE,72,3.5,3.5,88,0.01,CLR,,0.09,0.0,WeatherDisplay:10.37,2013-01-20 04:31:00,
2013-01-20 05:34:00,53.0,49.5,29.56,ENE,78,0.0,0.0,88,0.01,CLR,,0.09,0.0,WeatherDisplay:10.37,2013-01-20 04:34:00,
2013-01-20 05:36:00,53.0,49.5,29.57,ENE,78,2.3,0.0,88,0.01,CLR,,0.09,0.0,WeatherDisplay:10.37,2013-01-20 04:36:00,
2013-01-20 05:40:00,53.0,49.5,29.56,East,81,5.0,5.0,88,0.01,CLR,,0.09,0.0,WeatherDisplay:10.37,2013-01-20 04:40:00,
2013-01-20 05:41:00,53.0,49.5,29.56,East,86,3.5,3.5,88,0.01,CLR,,0.09,0.0,WeatherDisplay:10.37,2013-01-20 04:41:00,
2013-01-20 05:45:00,53.1,49.9,29.56,East,86,0.0,0.4,89,0.00,CLR,,0.09,0.0,WeatherDisplay:10.37,2013-01-20 04:45:00,
2013-01-20 05:46:00,53.1,49.9,29.56,East,86,0.0,0.0,89,0.00,CLR,,0.09,0.0,WeatherDisplay:10.37,2013-01-20 04:46:00,
2013-01-20 05:50:00,53.2,50.0,29.57,East,86,4.6,4.6,89,0.00,CLR,,0.09,0.0,WeatherDisplay:10.37,2013-01-20 04:50:00,
2013-01-20 05:51:00,53.2,50.0,29.56,East,85,4.6,4.6,89,0.00,CLR,,0.09,0.0,WeatherDisplay:10.37,2013-01-20 04:51:00,
2013-01-20 05:55:00,53.4,50.2,29.56,East,85,0.0,0.0,89,0.00,CLR,,0.09,0.0,WeatherDisplay:10.37,2013-01-20 04:55:00,
2013-01-20 05:56:00,53.4,50.2,29.56,East,85,0.0,0.0,89,0.00,CLR,,0.09,0.0,WeatherDisplay:10.37,2013-01-20 04:56:00,
2013-01-20 06:00:00,53.5,50.0,29.57,East,86,3.5,3.5,88,0.00,CLR,,0.09,0.0,WeatherDisplay:10.37,2013-01-20 05:00:00,
2013-01-20 06:01:00,53.5,50.0,29.57,East,85,3.5,3.5,88,0.00,CLR,,0.09,0.0,WeatherDisplay:10.37,2013-01-20 05:01:00,
2013-01-20 06:03:00,53.5,50.0,29.57,East,85,5.0,5.0,88,0.00,CLR,,0.09,0.0,WeatherDisplay:10.37,2013-01-20 05:03:00,
2013-01-20 06:05:00,53.6,50.1,29.57,ENE,78,5.8,5.8,88,0.00,CLR,,0.09,0.0,WeatherDisplay:10.37,2013-01-20 05:05:00,
2013-01-20 06:06:00,53.6,50.1,29.57,ENE,78,3.5,3.5,88,0.00,CLR,,0.09,0.0,WeatherDisplay:10.37,2013-01-20 05:06:00,
2013-01-20 06:07:00,53.6,50.1,29.57,ENE,76,3.5,3.5,88,0.00,CLR,,0.09,0.0,WeatherDisplay:10.37,2013-01-20 05:07:00,
2013-01-20 06:08:00,53.6,50.1,29.57,ENE,76,3.5,3.5,88,0.00,CLR,,0.09,0.0,WeatherDisplay:10.37,2013-01-20 05:08:00,
2013-01-20 06:10:00,53.7,50.2,29.57,ENE,76,3.5,3.5,88,0.00,CLR,,0.09,0.0,WeatherDisplay:10.37,2013-01-20 05:10:00,
2013-01-20 06:11:00,53.7,50.2,29.57,ENE,76,4.0,4.0,88,0.00,CLR,,0.09,0.0,WeatherDisplay:10.37,2013-01-20 05:11:00,
2013-01-20 06:12:00,53.7,50.2,29.57,ENE,76,3.5,3.5,88,0.00,CLR,,0.09,0.0,WeatherDisplay:10.37,2013-01-20 05:12:00,
2013-01-20 06:13:00,53.7,50.2,29.57,ENE,76,3.5,3.5,88,0.00,CLR,,0.09,0.0,WeatherDisplay:10.37,2013-01-20 05:13:00,
2013-01-20 06:15:00,53.7,50.2,29.57,ENE,73,5.0,5.0,88,0.00,CLR,,0.09,0.0,WeatherDisplay:10.37,2013-01-20 05:15:00,
2013-01-20 06:16:00,53.7,50.2,29.57,ENE,73,4.6,4.6,88,0.00,CLR,,0.09,0.0,WeatherDisplay:10.37,2013-01-20 05:16:00,
2013-01-20 06:17:00,53.7,50.2,29.57,ENE,78,3.5,3.8,88,0.00,CLR,,0.09,0.0,WeatherDisplay:10.37,2013-01-20 05:17:00,
2013-01-20 06:18:00,53.7,50.2,29.57,East,80,6.9,6.9,88,0.00,CLR,,0.09,0.0,WeatherDisplay:10.37,2013-01-20 05:18:00,
2013-01-20 06:20:00,53.7,50.2,29.57,East,101,4.6,4.6,88,0.00,CLR,,0.09,0.0,WeatherDisplay:10.37,2013-01-20 05:20:00,
2013-01-20 06:21:00,53.7,50.2,29.57,ESE,102,4.6,4.6,88,0.00,CLR,,0.09,0.0,WeatherDisplay:10.37,2013-01-20 05:21:00,
2013-01-20 06:23:00,53.8,50.3,29.57,East,101,6.9,6.9,88,0.00,CLR,,0.09,0.0,WeatherDisplay:10.37,2013-01-20 05:23:00,
2013-01-20 06:25:00,53.8,50.3,29.57,ESE,115,4.6,4.6,88,0.00,CLR,,0.09,0.0,WeatherDisplay:10.37,2013-01-20 05:25:00,
2013-01-20 06:26:00,53.9,50.4,29.57,ESE,115,3.5,3.5,88,0.00,CLR,,0.09,0.0,WeatherDisplay:10.37,2013-01-20 05:26:00,
2013-01-20 06:28:00,53.9,50.4,29.57,ESE,111,3.5,3.5,88,0.00,CLR,,0.09,0.0,WeatherDisplay:10.37,2013-01-20 05:28:00,
2013-01-20 06:30:00,53.9,50.4,29.57,ESE,110,3.5,3.5,88,0.00,CLR,,0.09,0.0,WeatherDisplay:10.37,2013-01-20 05:30:00,
2013-01-20 06:32:00,54.0,50.5,29.57,ESE,110,0.0,0.0,88,0.00,CLR,,0.09,0.0,WeatherDisplay:10.37,2013-01-20 05:32:00,
2013-01-20 06:33:00,54.0,50.5,29.57,ESE,110,0.0,0.0,88,0.00,CLR,,0.09,0.0,WeatherDisplay:10.37,2013-01-20 05:33:00,
2013-01-20 06:36:00,54.0,50.2,29.57,ESE,121,3.5,3.5,87,0.00,CLR,,0.09,0.0,WeatherDisplay:10.37,2013-01-20 05:36:00,
2013-01-20 06:37:00,54.0,50.2,29.58,ESE,121,2.3,0.0,87,0.00,CLR,,0.09,0.0,WeatherDisplay:10.37,2013-01-20 05:37:00,
2013-01-20 06:38:00,54.0,50.2,29.57,ESE,121,0.0,0.0,87,0.00,CLR,,0.09,0.0,WeatherDisplay:10.37,2013-01-20 05:38:00,
2013-01-20 06:39:00,54.0,50.5,29.58,ESE,121,1.1,0.0,88,0.00,CLR,,0.09,0.0,WeatherDisplay:10.37,2013-01-20 05:39:00,
2013-01-20 06:41:00,54.1,50.3,29.58,ESE,121,3.5,3.5,87,0.00,CLR,,0.09,0.0,WeatherDisplay:10.37,2013-01-20 05:41:00,
2013-01-20 06:42:00,54.1,50.3,29.58,ESE,121,2.3,2.3,87,0.00,CLR,,0.09,0.0,WeatherDisplay:10.37,2013-01-20 05:42:00,
2013-01-20 06:43:00,54.1,50.3,29.58,ESE,116,3.5,3.5,87,0.00,CLR,,0.09,0.0,WeatherDisplay:10.37,2013-01-20 05:43:00,
2013-01-20 06:44:00,54.1,50.3,29.58,ESE,116,3.5,3.5,87,0.00,CLR,,0.09,0.0,WeatherDisplay:10.37,2013-01-20 05:44:00,
2013-01-20 06:46:00,54.1,50.3,29.58,ESE,115,3.5,3.5,87,0.00,CLR,,0.09,0.0,WeatherDisplay:10.37,2013-01-20 05:46:00,
2013-01-20 06:47:00,54.1,50.3,29.58,ESE,115,1.1,0.0,87,0.00,CLR,,0.09,0.0,WeatherDisplay:10.37,2013-01-20 05:47:00,
2013-01-20 06:48:00,54.1,50.3,29.58,ESE,115,3.0,3.0,87,0.00,CLR,,0.09,0.0,WeatherDisplay:10.37,2013-01-20 05:48:00,
2013-01-20 06:49:00,54.1,50.3,29.58,ESE,115,3.5,3.5,87,0.00,CLR,,0.09,0.0,WeatherDisplay:10.37,2013-01-20 05:49:00,
2013-01-20 06:51:00,54.1,50.3,29.58,ESE,115,2.3,2.3,87,0.00,CLR,,0.09,0.0,WeatherDisplay:10.37,2013-01-20 05:51:00,
2013-01-20 06:52:00,54.1,50.3,29.58,ESE,114,2.3,2.3,87,0.00,CLR,,0.09,0.0,WeatherDisplay:10.37,2013-01-20 05:52:00,
2013-01-20 06:53:00,54.1,50.3,29.58,ESE,114,3.5,3.5,87,0.00,CLR,,0.09,0.0,WeatherDisplay:10.37,2013-01-20 05:53:00,
2013-01-20 06:54:00,54.1,50.3,29.58,ESE,114,3.5,3.5,87,0.00,CLR,,0.09,0.0,WeatherDisplay:10.37,2013-01-20 05:54:00,
2013-01-20 06:57:00,54.1,50.3,29.58,SE,130,3.5,3.5,87,0.00,CLR,,0.09,0.0,WeatherDisplay:10.37,2013-01-20 05:57:00,
2013-01-20 06:59:00,54.3,50.5,29.58,SE,130,5.8,5.8,87,0.00,CLR,,0.09,0.0,WeatherDisplay:10.37,2013-01-20 05:59:00,
2013-01-20 07:00:00,54.4,50.6,29.58,SE,135,4.6,4.6,87,0.00,CLR,,0.09,0.0,WeatherDisplay:10.37,2013-01-20 06:00:00,
2013-01-20 07:02:00,54.5,50.7,29.58,ESE,123,6.9,6.9,87,0.00,CLR,,0.09,0.0,WeatherDisplay:10.37,2013-01-20 06:02:00,
2013-01-20 07:05:00,54.6,50.8,29.58,ESE,114,0.0,0.0,87,0.00,CLR,,0.09,0.0,WeatherDisplay:10.37,2013-01-20 06:05:00,
2013-01-20 07:07:00,54.7,50.9,29.58,SSE,148,6.0,6.0,87,0.00,CLR,,0.09,0.0,WeatherDisplay:10.37,2013-01-20 06:07:00,
2013-01-20 07:10:00,54.7,50.9,29.58,SE,136,4.6,4.6,87,0.00,CLR,,0.09,0.0,WeatherDisplay:10.37,2013-01-20 06:10:00,
2013-01-20 07:12:00,54.8,51.0,29.58,ESE,113,3.5,3.5,87,0.00,CLR,,0.09,0.0,WeatherDisplay:10.37,2013-01-20 06:12:00,
2013-01-20 07:13:00,54.8,51.0,29.58,ESE,113,3.5,3.5,87,0.00,CLR,,0.09,0.0,WeatherDisplay:10.37,2013-01-20 06:13:00,
2013-01-20 07:15:00,54.9,51.1,29.58,SE,140,4.6,4.6,87,0.00,CLR,,0.09,0.0,WeatherDisplay:10.37,2013-01-20 06:15:00,
2013-01-20 07:17:00,55.0,51.2,29.58,SE,126,6.9,6.9,87,0.00,CLR,,0.09,0.0,WeatherDisplay:10.37,2013-01-20 06:17:00,
2013-01-20 07:18:00,55.0,51.2,29.58,SE,126,5.8,5.8,87,0.00,CLR,,0.09,0.0,WeatherDisplay:10.37,2013-01-20 06:18:00,
2013-01-20 07:20:00,55.2,51.4,29.58,ESE,119,8.1,8.1,87,0.00,CLR,,0.09,0.0,WeatherDisplay:10.37,2013-01-20 06:20:00,
2013-01-20 07:23:00,55.3,51.5,29.57,SE,132,10.4,10.4,87,0.00,CLR,,0.09,0.0,WeatherDisplay:10.37,2013-01-20 06:23:00,
2013-01-20 07:25:00,55.4,51.3,29.58,SE,138,9.2,9.2,86,0.00,CLR,,0.09,0.0,WeatherDisplay:10.37,2013-01-20 06:25:00,
2013-01-20 07:26:00,55.5,51.4,29.57,SE,142,8.1,8.1,86,0.00,CLR,,0.09,0.0,WeatherDisplay:10.37,2013-01-20 06:26:00,
2013-01-20 07:28:00,55.6,51.5,29.57,ESE,123,8.1,8.1,86,0.00,CLR,,0.09,0.0,WeatherDisplay:10.37,2013-01-20 06:28:00,
2013-01-20 07:30:00,55.7,51.6,29.57,SE,138,10.4,10.4,86,0.00,CLR,,0.09,0.0,WeatherDisplay:10.37,2013-01-20 06:30:00,
2013-01-20 07:32:00,55.7,51.6,29.57,SE,137,10.4,10.4,86,0.00,CLR,,0.09,0.0,WeatherDisplay:10.37,2013-01-20 06:32:00,
2013-01-20 07:33:00,55.8,51.7,29.57,SE,136,6.9,6.9,86,0.00,CLR,,0.09,0.0,WeatherDisplay:10.37,2013-01-20 06:33:00,
2013-01-20 07:35:00,55.8,51.7,29.57,ESE,119,9.2,9.2,86,0.00,CLR,,0.09,7.0,WeatherDisplay:10.37,2013-01-20 06:35:00,
2013-01-20 07:37:00,55.8,51.4,29.57,ESE,121,8.1,8.1,85,0.00,CLR,,0.09,7.0,WeatherDisplay:10.37,2013-01-20 06:37:00,
2013-01-20 07:38:00,55.9,51.5,29.57,SE,140,9.2,9.2,85,0.00,CLR,,0.09,12.0,WeatherDisplay:10.37,2013-01-20 06:38:00,
2013-01-20 07:40:00,55.9,51.5,29.57,SE,137,5.8,5.8,85,0.00,CLR,,0.09,12.0,WeatherDisplay:10.37,2013-01-20 06:40:00,
2013-01-20 07:42:00,55.9,51.5,29.57,SE,132,6.9,6.9,85,0.00,CLR,,0.09,26.0,WeatherDisplay:10.37,2013-01-20 06:42:00,
2013-01-20 07:43:00,55.9,51.5,29.57,SE,136,8.1,8.1,85,0.00,CLR,,0.09,30.0,WeatherDisplay:10.37,2013-01-20 06:43:00,
2013-01-20 07:44:00,55.9,51.5,29.57,SE,133,10.4,10.4,85,0.00,CLR,,0.09,33.0,WeatherDisplay:10.37,2013-01-20 06:44:00,
2013-01-20 07:45:00,56.0,51.6,29.57,SE,138,8.1,8.1,85,0.00,CLR,,0.09,33.0,WeatherDisplay:10.37,2013-01-20 06:45:00,
2013-01-20 07:47:00,56.0,51.6,29.57,SE,131,5.0,5.0,85,0.00,CLR,,0.09,40.0,WeatherDisplay:10.37,2013-01-20 06:47:00,
2013-01-20 07:48:00,56.0,51.6,29.57,SE,134,4.6,4.6,85,0.00,CLR,,0.09,42.0,WeatherDisplay:10.37,2013-01-20 06:48:00,
2013-01-20 07:49:00,56.0,51.6,29.57,SE,130,6.9,6.9,85,0.00,CLR,,0.09,42.0,WeatherDisplay:10.37,2013-01-20 06:49:00,
2013-01-20 07:50:00,56.0,51.6,29.58,SE,133,5.8,5.8,85,0.00,CLR,,0.09,42.0,WeatherDisplay:10.37,2013-01-20 06:50:00,
2013-01-20 07:52:00,56.0,51.6,29.58,SE,129,4.6,4.6,85,0.00,CLR,,0.09,39.0,WeatherDisplay:10.37,2013-01-20 06:52:00,
2013-01-20 07:54:00,56.0,51.6,29.58,SE,128,4.6,4.6,85,0.00,CLR,,0.09,35.0,WeatherDisplay:10.37,2013-01-20 06:54:00,
2013-01-20 07:55:00,56.0,51.6,29.57,SE,132,5.0,5.0,85,0.00,CLR,,0.09,33.0,WeatherDisplay:10.37,2013-01-20 06:55:00,
2013-01-20 07:57:00,56.0,51.6,29.57,ESE,119,4.6,4.6,85,0.00,CLR,,0.09,33.0,WeatherDisplay:10.37,2013-01-20 06:57:00,
2013-01-20 07:59:00,56.0,51.6,29.57,SE,144,9.2,9.2,85,0.00,CLR,,0.09,33.0,WeatherDisplay:10.37,2013-01-20 06:59:00,
2013-01-20 08:01:00,56.1,51.7,29.57,SE,131,9.2,9.2,85,0.00,CLR,,0.09,35.0,WeatherDisplay:10.37,2013-01-20 07:01:00,
2013-01-20 08:02:00,56.1,51.3,29.57,SE,134,6.9,6.9,84,0.00,CLR,,0.09,35.0,WeatherDisplay:10.37,2013-01-20 07:02:00,
2013-01-20 08:04:00,56.1,51.3,29.58,SSE,150,8.1,8.1,84,0.00,CLR,,0.09,33.0,WeatherDisplay:10.37,2013-01-20 07:04:00,
2013-01-20 08:05:00,56.1,51.3,29.58,SE,146,4.6,4.6,84,0.00,CLR,,0.09,33.0,WeatherDisplay:10.37,2013-01-20 07:05:00,
2013-01-20 08:06:00,56.1,51.7,29.57,SE,126,5.8,5.8,85,0.00,CLR,,0.09,30.0,WeatherDisplay:10.37,2013-01-20 07:06:00,
2013-01-20 08:07:00,56.1,51.7,29.57,SE,128,5.8,5.8,85,0.00,CLR,,0.09,28.0,WeatherDisplay:10.37,2013-01-20 07:07:00,
2013-01-20 08:09:00,56.2,51.4,29.57,SE,126,8.1,8.1,84,0.00,CLR,,0.09,26.0,WeatherDisplay:10.37,2013-01-20 07:09:00,
2013-01-20 08:10:00,56.2,51.4,29.57,SE,137,4.6,4.6,84,0.00,CLR,,0.09,26.0,WeatherDisplay:10.37,2013-01-20 07:10:00,
2013-01-20 08:11:00,56.2,51.4,29.57,SE,132,4.6,4.6,84,0.00,CLR,,0.09,26.0,WeatherDisplay:10.37,2013-01-20 07:11:00,
2013-01-20 08:12:00,56.2,51.4,29.57,ESE,121,5.8,5.8,84,0.00,CLR,,0.09,26.0,WeatherDisplay:10.37,2013-01-20 07:12:00,
2013-01-20 08:15:00,56.2,51.4,29.58,ESE,105,8.0,8.0,84,0.00,CLR,,0.09,26.0,WeatherDisplay:10.37,2013-01-20 07:15:00,
2013-01-20 08:16:00,56.3,51.5,29.58,ESE,113,10.4,10.4,84,0.00,CLR,,0.09,39.0,WeatherDisplay:10.37,2013-01-20 07:16:00,
2013-01-20 08:17:00,56.3,51.5,29.57,ESE,115,4.6,4.6,84,0.00,CLR,,0.09,39.0,WeatherDisplay:10.37,2013-01-20 07:17:00,
2013-01-20 08:20:00,56.3,51.5,29.57,SE,127,6.0,6.0,84,0.00,CLR,,0.09,62.0,WeatherDisplay:10.37,2013-01-20 07:20:00,
2013-01-20 08:21:00,56.3,51.5,29.57,SSE,148,6.0,6.0,84,0.00,CLR,,0.09,70.0,WeatherDisplay:10.37,2013-01-20 07:21:00,
2013-01-20 08:22:00,56.3,51.5,29.57,SSE,150,6.9,6.9,84,0.00,CLR,,0.09,76.0,WeatherDisplay:10.37,2013-01-20 07:22:00,
2013-01-20 08:25:00,56.4,51.6,29.58,SE,143,4.6,4.6,84,0.00,CLR,,0.09,88.0,WeatherDisplay:10.37,2013-01-20 07:25:00,
2013-01-20 08:27:00,56.4,51.6,29.57,SE,138,5.8,5.8,84,0.00,CLR,,0.09,91.0,WeatherDisplay:10.37,2013-01-20 07:27:00,
2013-01-20 08:30:00,56.5,51.7,29.58,SE,127,6.9,6.9,84,0.00,CLR,,0.09,91.0,WeatherDisplay:10.37,2013-01-20 07:30:00,
2013-01-20 08:32:00,56.5,51.7,29.57,SE,130,4.6,4.6,84,0.00,CLR,,0.09,104.0,WeatherDisplay:10.37,2013-01-20 07:32:00,
2013-01-20 08:33:00,56.6,51.8,29.57,SE,141,5.8,5.8,84,0.00,CLR,,0.09,104.0,WeatherDisplay:10.37,2013-01-20 07:33:00,
2013-01-20 08:35:00,56.6,51.8,29.58,SE,146,5.8,5.8,84,0.00,CLR,,0.09,113.0,WeatherDisplay:10.37,2013-01-20 07:35:00,
2013-01-20 08:37:00,56.7,51.9,29.58,SE,144,5.8,5.8,84,0.00,CLR,,0.09,114.0,WeatherDisplay:10.37,2013-01-20 07:37:00,
2013-01-20 08:39:00,56.7,51.9,29.58,SE,142,3.5,3.5,84,0.00,CLR,,0.09,123.0,WeatherDisplay:10.37,2013-01-20 07:39:00,
2013-01-20 08:40:00,56.8,52.0,29.58,SE,140,3.5,3.5,84,0.00,CLR,,0.09,130.0,WeatherDisplay:10.37,2013-01-20 07:40:00,
2013-01-20 08:42:00,56.9,52.1,29.58,SE,144,10.4,10.4,84,0.00,CLR,,0.09,120.0,WeatherDisplay:10.37,2013-01-20 07:42:00,
2013-01-20 08:44:00,56.9,52.1,29.58,ESE,119,10.4,10.4,84,0.00,CLR,,0.09,118.0,WeatherDisplay:10.37,2013-01-20 07:44:00,
2013-01-20 08:45:00,57.0,52.2,29.58,SE,126,6.9,6.9,84,0.00,CLR,,0.09,120.0,WeatherDisplay:10.37,2013-01-20 07:45:00,
2013-01-20 08:48:00,57.1,52.0,29.58,SE,142,6.9,6.9,83,0.00,CLR,,0.09,127.0,WeatherDisplay:10.37,2013-01-20 07:48:00,
2013-01-20 08:49:00,57.2,52.1,29.58,SE,130,6.9,6.9,83,0.00,CLR,,0.09,127.0,WeatherDisplay:10.37,2013-01-20 07:49:00,
2013-01-20 08:50:00,57.2,52.1,29.58,SE,126,4.6,4.6,83,0.00,CLR,,0.09,127.0,WeatherDisplay:10.37,2013-01-20 07:50:00,
2013-01-20 08:53:00,57.3,52.2,29.58,SE,128,3.5,3.5,83,0.00,CLR,,0.09,90.0,WeatherDisplay:10.37,2013-01-20 07:53:00,
2013-01-20 08:54:00,57.4,52.3,29.58,SE,128,1.1,0.0,83,0.00,CLR,,0.09,84.0,WeatherDisplay:10.37,2013-01-20 07:54:00,
2013-01-20 08:55:00,57.4,52.3,29.58,SE,128,3.0,3.0,83,0.00,CLR,,0.09,83.0,WeatherDisplay:10.37,2013-01-20 07:55:00,
2013-01-20 08:58:00,57.5,52.4,29.58,SE,132,6.9,6.9,83,0.00,CLR,,0.09,81.0,WeatherDisplay:10.37,2013-01-20 07:58:00,
2013-01-20 08:59:00,57.5,52.4,29.58,SE,128,6.9,6.9,83,0.00,CLR,,0.09,79.0,WeatherDisplay:10.37,2013-01-20 07:59:00,
2013-01-20 09:00:00,57.5,52.4,29.58,SE,130,3.5,3.5,83,0.00,CLR,,0.09,79.0,WeatherDisplay:10.37,2013-01-20 08:00:00,
2013-01-20 09:01:00,57.5,52.4,29.58,SE,130,3.5,3.5,83,0.00,CLR,,0.09,79.0,WeatherDisplay:10.37,2013-01-20 08:01:00,
2013-01-20 09:03:00,57.6,52.5,29.58,SE,130,2.3,2.3,83,0.00,CLR,,0.09,79.0,WeatherDisplay:10.37,2013-01-20 08:03:00,
2013-01-20 09:04:00,57.6,52.5,29.58,East,86,5.0,5.0,83,0.00,CLR,,0.09,84.0,WeatherDisplay:10.37,2013-01-20 08:04:00,
2013-01-20 09:06:00,57.6,52.5,29.58,East,101,8.1,8.1,83,0.00,CLR,,0.09,0.0,WeatherDisplay:10.37,2013-01-20 08:06:00,
2013-01-20 09:08:00,57.7,52.2,29.58,SE,128,8.1,8.1,82,0.00,CLR,,0.09,95.0,WeatherDisplay:10.37,2013-01-20 08:08:00,
2013-01-20 09:10:00,57.7,52.2,29.58,SE,128,6.9,6.9,82,0.00,CLR,,0.09,95.0,WeatherDisplay:10.37,2013-01-20 08:10:00,
2013-01-20 09:11:00,57.7,52.2,29.58,SE,128,4.0,4.0,82,0.00,CLR,,0.09,98.0,WeatherDisplay:10.37,2013-01-20 08:11:00,
2013-01-20 09:14:00,57.8,52.3,29.58,SE,138,5.8,5.8,82,0.00,CLR,,0.09,104.0,WeatherDisplay:10.37,2013-01-20 08:14:00,
2013-01-20 09:15:00,57.9,52.4,29.58,SE,130,5.8,5.8,82,0.00,CLR,,0.09,102.0,WeatherDisplay:10.37,2013-01-20 08:15:00,
2013-01-20 09:16:00,57.9,52.4,29.58,SE,131,4.6,4.6,82,0.00,CLR,,0.09,104.0,WeatherDisplay:10.37,2013-01-20 08:16:00,
2013-01-20 09:17:00,57.9,52.4,29.58,SE,131,0.0,0.0,82,0.00,CLR,,0.09,97.0,WeatherDisplay:10.37,2013-01-20 08:17:00,
2013-01-20 09:19:00,58.0,52.5,29.58,SE,128,2.3,2.3,82,0.00,CLR,,0.09,91.0,WeatherDisplay:10.37,2013-01-20 08:19:00,
2013-01-20 09:20:00,58.0,52.5,29.58,ESE,123,2.3,2.3,82,0.00,CLR,,0.09,77.0,WeatherDisplay:10.37,2013-01-20 08:20:00,
2013-01-20 09:21:00,58.0,52.5,29.58,SE,132,3.5,3.5,82,0.00,CLR,,0.09,74.0,WeatherDisplay:10.37,2013-01-20 08:21:00,
2013-01-20 09:22:00,58.0,52.5,29.58,SE,132,2.3,2.3,82,0.00,CLR,,0.09,74.0,WeatherDisplay:10.37,2013-01-20 08:22:00,
2013-01-20 09:24:00,58.1,52.6,29.58,SE,131,1.1,0.0,82,0.00,CLR,,0.09,69.0,WeatherDisplay:10.37,2013-01-20 08:24:00,
2013-01-20 09:25:00,58.1,52.6,29.58,East,93,3.5,3.5,82,0.00,CLR,,0.09,69.0,WeatherDisplay:10.37,2013-01-20 08:25:00,
2013-01-20 09:26:00,58.1,52.6,29.58,East,97,4.6,4.6,82,0.00,CLR,,0.09,70.0,WeatherDisplay:10.37,2013-01-20 08:26:00,
2013-01-20 09:27:00,58.1,52.6,29.58,East,97,3.5,3.5,82,0.00,CLR,,0.09,70.0,WeatherDisplay:10.37,2013-01-20 08:27:00,
2013-01-20 09:29:00,58.1,52.6,29.59,East,97,1.1,0.0,82,0.00,CLR,,0.09,76.0,WeatherDisplay:10.37,2013-01-20 08:29:00,
2013-01-20 09:30:00,58.1,52.6,29.59,ESE,112,2.3,2.3,82,0.00,CLR,,0.09,76.0,WeatherDisplay:10.37,2013-01-20 08:30:00,
2013-01-20 09:31:00,58.1,52.6,29.59,ESE,116,4.6,4.6,82,0.00,CLR,,0.09,76.0,WeatherDisplay:10.37,2013-01-20 08:31:00,
2013-01-20 09:32:00,58.2,52.7,29.59,SE,131,4.0,4.0,82,0.00,CLR,,0.09,76.0,WeatherDisplay:10.37,2013-01-20 08:32:00,
2013-01-20 09:35:00,58.2,52.7,29.59,SE,128,3.5,3.5,82,0.00,CLR,,0.09,88.0,WeatherDisplay:10.37,2013-01-20 08:35:00,
2013-01-20 09:37:00,58.2,52.7,29.59,SE,132,0.0,0.0,82,0.00,CLR,,0.09,86.0,WeatherDisplay:10.37,2013-01-20 08:37:00,
2013-01-20 09:38:00,58.3,52.8,29.59,SE,132,0.0,0.0,82,0.00,CLR,,0.09,84.0,WeatherDisplay:10.37,2013-01-20 08:38:00,
2013-01-20 09:40:00,58.3,52.8,29.59,SE,132,3.5,3.5,82,0.00,CLR,,0.09,81.0,WeatherDisplay:10.37,2013-01-20 08:40:00,
2013-01-20 09:42:00,58.3,52.8,29.59,SE,144,3.5,0.0,82,0.00,CLR,,0.09,72.0,WeatherDisplay:10.37,2013-01-20 08:42:00,
2013-01-20 09:43:00,58.3,52.8,29.59,SE,138,3.5,3.5,82,0.00,CLR,,0.09,72.0,WeatherDisplay:10.37,2013-01-20 08:43:00,
2013-01-20 09:45:00,58.4,52.9,29.59,SE,144,3.5,3.5,82,0.00,CLR,,0.09,72.0,WeatherDisplay:10.37,2013-01-20 08:45:00,
2013-01-20 09:47:00,58.4,52.9,29.59,SE,142,3.5,3.5,82,0.00,CLR,,0.09,63.0,WeatherDisplay:10.37,2013-01-20 08:47:00,
2013-01-20 09:48:00,58.4,52.9,29.59,SSE,147,3.5,3.5,82,0.00,CLR,,0.09,63.0,WeatherDisplay:10.37,2013-01-20 08:48:00,
2013-01-20 09:50:00,58.5,53.0,29.59,SSE,147,2.3,2.3,82,0.00,CLR,,0.09,65.0,WeatherDisplay:10.37,2013-01-20 08:50:00,
2013-01-20 09:52:00,58.5,53.0,29.60,SSE,147,1.1,0.0,82,0.00,CLR,,0.09,72.0,WeatherDisplay:10.37,2013-01-20 08:52:00,
2013-01-20 09:53:00,58.5,52.7,29.60,SSE,147,0.0,0.0,81,0.00,CLR,,0.09,74.0,WeatherDisplay:10.37,2013-01-20 08:53:00,
2013-01-20 09:55:00,58.5,52.7,29.60,SSE,147,0.0,0.1,81,0.00,CLR,,0.09,79.0,WeatherDisplay:10.37,2013-01-20 08:55:00,
2013-01-20 09:57:00,58.6,52.8,29.60,SSE,147,0.0,0.0,81,0.00,CLR,,0.09,84.0,WeatherDisplay:10.37,2013-01-20 08:57:00,
2013-01-20 09:59:00,58.6,52.8,29.60,SSE,147,0.0,0.0,81,0.00,CLR,,0.09,84.0,WeatherDisplay:10.37,2013-01-20 08:59:00,
2013-01-20 10:00:00,58.6,52.8,29.60,SSE,147,2.0,2.0,81,0.00,CLR,,0.09,86.0,WeatherDisplay:10.37,2013-01-20 09:00:00,
2013-01-20 10:01:00,58.6,52.8,29.60,SSE,147,5.0,5.0,81,0.00,CLR,,0.09,86.0,WeatherDisplay:10.37,2013-01-20 09:01:00,
2013-01-20 10:02:00,58.7,52.9,29.60,SSE,147,4.6,4.6,81,0.00,CLR,,0.09,86.0,WeatherDisplay:10.37,2013-01-20 09:02:00,
2013-01-20 10:04:00,58.8,53.0,29.60,South,177,4.6,4.6,81,0.00,CLR,,0.09,93.0,WeatherDisplay:10.37,2013-01-20 09:04:00,
2013-01-20 10:06:00,58.9,53.1,29.60,SSE,160,3.5,3.5,81,0.00,CLR,,0.09,93.0,WeatherDisplay:10.37,2013-01-20 09:06:00,
2013-01-20 10:08:00,58.9,53.1,29.60,SSE,158,6.0,6.0,81,0.00,CLR,,0.09,102.0,WeatherDisplay:10.37,2013-01-20 09:08:00,
2013-01-20 10:09:00,58.9,53.1,29.60,SSE,165,5.8,5.8,81,0.00,CLR,,0.09,105.0,WeatherDisplay:10.37,2013-01-20 09:09:00,
2013-01-20 10:11:00,58.9,53.1,29.61,SSE,159,8.1,8.1,81,0.00,CLR,,0.09,104.0,WeatherDisplay:10.37,2013-01-20 09:11:00,
2013-01-20 10:13:00,58.9,53.1,29.60,SSE,163,3.5,3.5,81,0.00,FEW,,0.09,86.0,WeatherDisplay:10.37,2013-01-20 09:13:00,
2013-01-20 10:14:00,58.9,53.1,29.60,SSE,165,7.0,7.0,81,0.00,FEW,,0.09,83.0,WeatherDisplay:10.37,2013-01-20 09:14:00,
2013-01-20 10:16:00,58.9,53.1,29.61,SE,146,8.1,8.1,81,0.00,FEW,,0.09,83.0,WeatherDisplay:10.37,2013-01-20 09:16:00,
2013-01-20 10:17:00,58.9,53.1,29.60,SE,146,3.5,3.5,81,0.00,CLR,,0.09,72.0,WeatherDisplay:10.37,2013-01-20 09:17:00,
2013-01-20 10:18:00,58.9,53.1,29.60,SSE,157,3.5,3.5,81,0.00,FEW,,0.09,72.0,WeatherDisplay:10.37,2013-01-20 09:18:00,
2013-01-20 10:19:00,58.9,53.1,29.60,South,171,6.0,6.0,81,0.00,FEW,,0.09,70.0,WeatherDisplay:10.37,2013-01-20 09:19:00,
2013-01-20 10:21:00,58.9,53.1,29.60,SSE,153,4.0,4.0,81,0.00,FEW,,0.09,65.0,WeatherDisplay:10.37,2013-01-20 09:21:00,
2013-01-20 10:22:00,58.9,53.1,29.60,SSE,153,5.0,5.0,81,0.00,FEW,,0.09,65.0,WeatherDisplay:10.37,2013-01-20 09:22:00,
2013-01-20 10:23:00,58.9,53.1,29.60,SSE,150,4.6,4.6,81,0.00,FEW,,0.09,58.0,WeatherDisplay:10.37,2013-01-20 09:23:00,
2013-01-20 10:25:00,58.9,52.7,29.60,SSE,148,4.0,4.0,80,0.00,FEW,,0.09,56.0,WeatherDisplay:10.37,2013-01-20 09:25:00,
2013-01-20 10:27:00,58.9,52.7,29.60,SE,144,5.8,5.8,80,0.00,FEW,,0.09,58.0,WeatherDisplay:10.37,2013-01-20 09:27:00,
2013-01-20 10:28:00,59.0,52.8,29.60,SSE,148,10.4,10.4,80,0.00,FEW,,0.09,58.0,WeatherDisplay:10.37,2013-01-20 09:28:00,
2013-01-20 10:30:00,59.1,52.9,29.60,SSE,156,5.8,5.8,80,0.00,FEW,,0.09,63.0,WeatherDisplay:10.37,2013-01-20 09:30:00,
2013-01-20 10:32:00,59.2,53.0,29.60,South,171,4.0,4.0,80,0.00,FEW,,0.09,65.0,WeatherDisplay:10.37,2013-01-20 09:32:00,
2013-01-20 10:33:00,59.2,53.0,29.60,South,174,4.0,4.0,80,0.00,FEW,,0.09,65.0,WeatherDisplay:10.37,2013-01-20 09:33:00,
2013-01-20 10:35:00,59.2,53.0,29.61,SW,217,6.9,6.9,80,0.00,FEW,,0.09,70.0,WeatherDisplay:10.37,2013-01-20 09:35:00,
2013-01-20 10:37:00,59.3,53.1,29.61,SSE,157,9.2,9.2,80,0.00,FEW,,0.09,91.0,WeatherDisplay:10.37,2013-01-20 09:37:00,
2013-01-20 10:38:00,59.3,53.1,29.61,SSE,158,8.1,8.1,80,0.00,FEW,,0.09,97.0,WeatherDisplay:10.37,2013-01-20 09:38:00,
2013-01-20 10:40:00,59.3,53.1,29.60,SSE,160,3.5,3.5,80,0.00,FEW,,0.09,104.0,WeatherDisplay:10.37,2013-01-20 09:40:00,
2013-01-20 10:43:00,59.3,53.1,29.60,SSE,161,5.8,5.8,80,0.00,FEW,,0.09,105.0,WeatherDisplay:10.37,2013-01-20 09:43:00,
2013-01-20 10:44:00,59.4,53.2,29.59,SSE,161,3.5,3.5,80,0.00,FEW,,0.09,107.0,WeatherDisplay:10.37,2013-01-20 09:44:00,
2013-01-20 10:45:00,59.4,53.2,29.59,SSE,165,6.9,6.9,80,0.00,FEW,,0.09,109.0,WeatherDisplay:10.37,2013-01-20 09:45:00,
2013-01-20 10:48:00,59.4,53.2,29.59,SSE,165,0.0,0.0,80,0.00,FEW,,0.09,121.0,WeatherDisplay:10.37,2013-01-20 09:48:00,
2013-01-20 10:49:00,59.4,53.2,29.59,South,171,4.6,4.6,80,0.00,FEW,,0.09,128.0,WeatherDisplay:10.37,2013-01-20 09:49:00,
2013-01-20 10:50:00,59.5,53.3,29.60,South,191,6.0,6.0,80,0.00,FEW,,0.09,137.0,WeatherDisplay:10.37,2013-01-20 09:50:00,
2013-01-20 10:53:00,59.5,53.3,29.60,South,173,6.9,6.9,80,0.00,FEW,,0.09,142.0,WeatherDisplay:10.37,2013-01-20 09:53:00,
2013-01-20 10:54:00,59.6,53.4,29.60,SSE,160,9.2,9.2,80,0.00,FEW,,0.09,142.0,WeatherDisplay:10.37,2013-01-20 09:54:00,
2013-01-20 10:56:00,59.6,53.4,29.60,South,178,10.0,10.0,80,0.00,FEW,,0.09,149.0,WeatherDisplay:10.37,2013-01-20 09:56:00,
2013-01-20 10:58:00,59.6,53.4,29.60,SSW,196,8.1,8.1,80,0.00,FEW,,0.09,139.0,WeatherDisplay:10.37,2013-01-20 09:58:00,
2013-01-20 10:59:00,59.7,53.5,29.60,South,172,8.1,8.1,80,0.00,FEW,,0.09,132.0,WeatherDisplay:10.37,2013-01-20 09:59:00,
2013-01-20 11:01:00,59.7,53.5,29.60,SSW,203,5.8,5.8,80,0.00,FEW,,0.09,121.0,WeatherDisplay:10.37,2013-01-20 10:01:00,
2013-01-20 11:03:00,59.8,53.6,29.60,South,182,5.8,5.8,80,0.00,FEW,,0.09,127.0,WeatherDisplay:10.37,2013-01-20 10:03:00,
2013-01-20 11:04:00,59.8,53.6,29.60,South,188,6.0,6.0,80,0.00,FEW,,0.09,125.0,WeatherDisplay:10.37,2013-01-20 10:04:00,
2013-01-20 11:07:00,59.8,53.6,29.60,SSW,194,5.8,5.8,80,0.00,FEW,,0.09,120.0,WeatherDisplay:10.37,2013-01-20 10:07:00,
2013-01-20 11:08:00,59.8,53.6,29.60,SSW,194,6.9,6.9,80,0.00,FEW,,0.09,128.0,WeatherDisplay:10.37,2013-01-20 10:08:00,
2013-01-20 11:09:00,59.8,53.6,29.60,SSW,192,3.5,3.5,80,0.00,FEW,,0.09,139.0,WeatherDisplay:10.37,2013-01-20 10:09:00,
2013-01-20 11:12:00,59.9,53.7,29.60,SSE,167,5.8,5.8,80,0.00,FEW,,0.09,125.0,WeatherDisplay:10.37,2013-01-20 10:12:00,
2013-01-20 11:13:00,59.9,53.7,29.60,South,173,3.5,3.5,80,0.00,FEW,,0.09,123.0,WeatherDisplay:10.37,2013-01-20 10:13:00,
2013-01-20 11:14:00,59.9,53.7,29.60,South,175,4.0,4.0,80,0.00,FEW,,0.09,123.0,WeatherDisplay:10.37,2013-01-20 10:14:00,
2013-01-20 11:15:00,59.9,53.7,29.60,South,178,3.5,3.5,80,0.00,FEW,,0.09,121.0,WeatherDisplay:10.37,2013-01-20 10:15:00,
2013-01-20 11:17:00,59.9,53.7,29.59,South,173,3.5,3.5,80,0.00,FEW,,0.09,141.0,WeatherDisplay:10.37,2013-01-20 10:17:00,
2013-01-20 11:18:00,59.9,53.7,29.59,South,173,3.5,3.5,80,0.00,FEW,,0.09,141.0,WeatherDisplay:10.37,2013-01-20 10:18:00,
2013-01-20 11:19:00,60.0,53.8,29.59,South,173,3.5,3.5,80,0.00,FEW,,0.09,156.0,WeatherDisplay:10.37,2013-01-20 10:19:00,
2013-01-20 11:20:00,60.0,53.8,29.59,South,174,3.5,3.5,80,0.00,FEW,,0.09,165.0,WeatherDisplay:10.37,2013-01-20 10:20:00,
2013-01-20 11:22:00,60.1,53.9,29.59,South,174,3.0,3.0,80,0.00,FEW,,0.09,146.0,WeatherDisplay:10.37,2013-01-20 10:22:00,
2013-01-20 11:23:00,60.1,53.9,29.59,South,174,3.5,3.5,80,0.00,FEW,,0.09,146.0,WeatherDisplay:10.37,2013-01-20 10:23:00,
2013-01-20 11:24:00,60.1,53.9,29.59,South,174,3.5,3.5,80,0.00,FEW,,0.09,146.0,WeatherDisplay:10.37,2013-01-20 10:24:00,
2013-01-20 11:25:00,60.1,53.9,29.59,South,175,3.5,3.5,80,0.00,FEW,,0.09,146.0,WeatherDisplay:10.37,2013-01-20 10:25:00,
2013-01-20 11:27:00,60.2,54.0,29.59,SSW,208,11.0,11.0,80,0.00,FEW,,0.09,130.0,WeatherDisplay:10.37,2013-01-20 10:27:00,
2013-01-20 11:28:00,60.2,54.0,29.59,SSW,209,11.5,11.5,80,0.00,FEW,,0.09,127.0,WeatherDisplay:10.37,2013-01-20 10:28:00,
2013-01-20 11:29:00,60.3,54.1,29.59,SSW,199,11.5,11.5,80,0.00,FEW,,0.09,127.0,WeatherDisplay:10.37,2013-01-20 10:29:00,
2013-01-20 11:30:00,60.3,54.1,29.59,SSW,211,8.1,8.1,80,0.00,FEW,,0.09,127.0,WeatherDisplay:10.37,2013-01-20 10:30:00,
2013-01-20 11:33:00,60.4,54.2,29.59,SE,141,12.7,12.7,80,0.00,FEW,,0.09,181.0,WeatherDisplay:10.37,2013-01-20 10:33:00,
2013-01-20 11:35:00,60.4,54.2,29.59,South,173,12.7,12.7,80,0.00,FEW,,0.09,199.0,WeatherDisplay:10.37,2013-01-20 10:35:00,
2013-01-20 11:36:00,60.5,54.3,29.59,South,182,8.1,8.1,80,0.00,FEW,,0.09,207.0,WeatherDisplay:10.37,2013-01-20 10:36:00,
2013-01-20 11:38:00,60.7,54.1,29.58,SSW,209,10.4,10.4,79,0.00,FEW,,0.09,207.0,WeatherDisplay:10.37,2013-01-20 10:38:00,
2013-01-20 11:40:00,60.8,54.2,29.58,SSW,198,15.0,15.0,79,0.00,FEW,,0.09,172.0,WeatherDisplay:10.37,2013-01-20 10:40:00,
2013-01-20 11:41:00,60.8,54.2,29.58,South,169,15.0,15.0,79,0.00,FEW,,0.09,160.0,WeatherDisplay:10.37,2013-01-20 10:41:00,
2013-01-20 11:43:00,60.9,54.0,29.58,South,171,10.0,10.0,78,0.00,FEW,,0.09,148.0,WeatherDisplay:10.37,2013-01-20 10:43:00,
2013-01-20 11:44:00,60.9,54.0,29.58,SSW,209,11.5,11.5,78,0.00,FEW,,0.09,123.0,WeatherDisplay:10.37,2013-01-20 10:44:00,
2013-01-20 11:45:00,61.0,54.1,29.58,South,191,11.5,11.5,78,0.00,FEW,,0.09,114.0,WeatherDisplay:10.37,2013-01-20 10:45:00,
2013-01-20 11:46:00,61.0,54.1,29.58,South,169,11.5,11.5,78,0.00,FEW,,0.09,109.0,WeatherDisplay:10.37,2013-01-20 10:46:00,
2013-01-20 11:48:00,61.1,53.8,29.58,SSW,210,12.7,12.7,77,0.00,FEW,,0.09,95.0,WeatherDisplay:10.37,2013-01-20 10:48:00,
2013-01-20 11:49:00,61.1,53.8,29.58,South,175,11.5,11.5,77,0.00,FEW,,0.09,95.0,WeatherDisplay:10.37,2013-01-20 10:49:00,
2013-01-20 11:50:00,61.1,53.8,29.57,SSE,163,10.4,10.4,77,0.00,FEW,,0.09,98.0,WeatherDisplay:10.37,2013-01-20 10:50:00,
2013-01-20 11:51:00,61.1,53.8,29.57,South,184,10.4,10.4,77,0.00,FEW,,0.09,98.0,WeatherDisplay:10.37,2013-01-20 10:51:00,
2013-01-20 11:53:00,61.2,53.9,29.57,SSW,199,9.2,9.2,77,0.00,FEW,,0.09,116.0,WeatherDisplay:10.37,2013-01-20 10:53:00,
2013-01-20 11:54:00,61.2,53.9,29.57,SSW,199,9.2,9.2,77,0.00,FEW,,0.09,116.0,WeatherDisplay:10.37,2013-01-20 10:54:00,
2013-01-20 11:56:00,61.2,53.9,29.57,SSW,199,9.2,9.2,77,0.00,FEW,,0.09,116.0,WeatherDisplay:10.37,2013-01-20 10:56:00,
2013-01-20 11:59:00,61.2,53.9,29.57,SSW,199,9.2,9.2,77,0.00,FEW,,0.09,116.0,WeatherDisplay:10.37,2013-01-20 10:59:00,
2013-01-20 12:01:00,61.2,53.9,29.57,SSW,199,9.2,9.2,77,0.00,FEW,,0.09,116.0,WeatherDisplay:10.37,2013-01-20 11:01:00,
2013-01-20 12:04:00,61.3,53.7,29.57,South,171,15.0,15.0,76,0.00,RA,,0.09,63.0,WeatherDisplay:10.37,2013-01-20 11:04:00,
2013-01-20 12:06:00,61.3,53.7,29.57,South,186,15.0,15.0,76,0.00,SCT,,0.09,67.0,WeatherDisplay:10.37,2013-01-20 11:06:00,
2013-01-20 12:09:00,61.3,53.7,29.57,SSE,167,9.2,9.2,76,0.00,RA,,0.09,76.0,WeatherDisplay:10.37,2013-01-20 11:09:00,
2013-01-20 12:12:00,61.3,53.3,29.57,SSW,195,16.1,16.1,75,0.00,RA,,0.09,81.0,WeatherDisplay:10.37,2013-01-20 11:12:00,
2013-01-20 12:14:00,61.3,53.3,29.57,SSE,157,12.7,12.7,75,0.00,RA,,0.09,86.0,WeatherDisplay:10.37,2013-01-20 11:14:00,
2013-01-20 12:17:00,61.3,53.3,29.57,SSE,167,8.1,8.1,75,0.00,SCT,,0.09,91.0,WeatherDisplay:10.37,2013-01-20 11:17:00,
2013-01-20 12:20:00,61.3,53.3,29.57,SSW,201,11.5,11.5,75,0.00,SCT,,0.09,102.0,WeatherDisplay:10.37,2013-01-20 11:20:00,
2013-01-20 12:22:00,61.3,53.7,29.56,SSE,166,14.0,14.0,76,0.00,SCT,,0.09,107.0,WeatherDisplay:10.37,2013-01-20 11:22:00,
2013-01-20 12:25:00,61.3,53.3,29.56,SSW,192,13.8,13.8,75,0.00,SCT,,0.09,114.0,WeatherDisplay:10.37,2013-01-20 11:25:00,
2013-01-20 12:27:00,61.3,53.7,29.57,SSE,165,8.0,8.0,76,0.00,FEW,,0.09,109.0,WeatherDisplay:10.37,2013-01-20 11:27:00,
2013-01-20 12:30:00,61.3,53.7,29.56,South,173,11.5,11.5,76,0.00,FEW,,0.09,118.0,WeatherDisplay:10.37,2013-01-20 11:30:00,
2013-01-20 12:32:00,61.3,53.7,29.56,SSE,152,12.7,12.7,76,0.00,FEW,,0.09,123.0,WeatherDisplay:10.37,2013-01-20 11:32:00,
2013-01-20 12:35:00,61.3,53.3,29.56,South,178,11.5,11.5,75,0.00,FEW,,0.09,123.0,WeatherDisplay:10.37,2013-01-20 11:35:00,
2013-01-20 12:36:00,61.2,53.2,29.57,South,171,11.5,11.5,75,0.00,FEW,,0.09,123.0,WeatherDisplay:10.37,2013-01-20 11:36:00,
2013-01-20 12:37:00,61.3,53.3,29.56,SSW,206,10.4,10.4,75,0.00,FEW,,0.09,114.0,WeatherDisplay:10.37,2013-01-20 11:37:00,
2013-01-20 12:40:00,61.2,53.2,29.56,South,180,13.8,13.8,75,0.00,FEW,,0.09,107.0,WeatherDisplay:10.37,2013-01-20 11:40:00,
2013-01-20 12:41:00,61.2,53.2,29.56,South,171,10.4,10.4,75,0.00,FEW,,0.09,107.0,WeatherDisplay:10.37,2013-01-20 11:41:00,
2013-01-20 12:42:00,61.2,53.2,29.56,SSW,207,11.5,11.5,75,0.00,FEW,,0.09,111.0,WeatherDisplay:10.37,2013-01-20 11:42:00,
2013-01-20 12:45:00,61.3,53.3,29.56,SSE,161,9.2,9.2,75,0.00,FEW,,0.09,111.0,WeatherDisplay:10.37,2013-01-20 11:45:00,
2013-01-20 12:46:00,61.3,53.3,29.56,SSE,159,10.4,10.4,75,0.00,FEW,,0.09,111.0,WeatherDisplay:10.37,2013-01-20 11:46:00,
2013-01-20 12:47:00,61.3,53.3,29.56,SSE,157,9.2,9.2,75,0.00,SCT,,0.09,105.0,WeatherDisplay:10.37,2013-01-20 11:47:00,
2013-01-20 12:48:00,61.3,53.3,29.56,South,171,9.2,9.2,75,0.00,SCT,,0.09,105.0,WeatherDisplay:10.37,2013-01-20 11:48:00,
2013-01-20 12:50:00,61.3,53.3,29.56,South,184,11.5,11.5,75,0.00,SCT,,0.09,104.0,WeatherDisplay:10.37,2013-01-20 11:50:00,
2013-01-20 12:51:00,61.3,52.9,29.56,South,189,11.5,11.5,74,0.00,SCT,,0.09,104.0,WeatherDisplay:10.37,2013-01-20 11:51:00,
2013-01-20 12:52:00,61.3,52.9,29.56,South,188,10.4,10.4,74,0.00,SCT,,0.09,104.0,WeatherDisplay:10.37,2013-01-20 11:52:00,
2013-01-20 12:53:00,61.3,52.9,29.56,SSE,155,9.2,9.2,74,0.00,SCT,,0.09,102.0,WeatherDisplay:10.37,2013-01-20 11:53:00,
2013-01-20 12:55:00,61.3,52.9,29.56,South,178,9.2,9.2,74,0.00,SCT,,0.09,98.0,WeatherDisplay:10.37,2013-01-20 11:55:00,
2013-01-20 12:56:00,61.4,53.0,29.56,SSW,209,8.1,8.1,74,0.00,SCT,,0.09,98.0,WeatherDisplay:10.37,2013-01-20 11:56:00,
2013-01-20 12:57:00,61.4,53.0,29.56,SSE,168,11.5,11.5,74,0.00,SCT,,0.09,98.0,WeatherDisplay:10.37,2013-01-20 11:57:00,
2013-01-20 12:58:00,61.4,53.0,29.56,SSE,167,11.5,11.5,74,0.00,SCT,,0.09,100.0,WeatherDisplay:10.37,2013-01-20 11:58:00,
2013-01-20 13:00:00,61.4,53.0,29.55,SSE,165,10.4,10.4,74,0.00,SCT,,0.09,100.0,WeatherDisplay:10.37,2013-01-20 12:00:00,
2013-01-20 13:01:00,61.4,53.0,29.55,SSE,149,8.0,8.0,74,0.00,SCT,,0.09,97.0,WeatherDisplay:10.37,2013-01-20 12:01:00,
2013-01-20 13:02:00,61.4,53.0,29.55,South,178,11.0,11.0,74,0.00,SCT,,0.09,97.0,WeatherDisplay:10.37,2013-01-20 12:02:00,
2013-01-20 13:03:00,61.4,53.0,29.55,SSW,205,9.2,9.2,74,0.00,SCT,,0.09,97.0,WeatherDisplay:10.37,2013-01-20 12:03:00,
2013-01-20 13:05:00,61.5,53.1,29.55,South,173,10.0,10.0,74,0.00,SCT,,0.09,91.0,WeatherDisplay:10.37,2013-01-20 12:05:00,
2013-01-20 13:07:00,61.5,53.1,29.55,South,186,9.2,9.2,74,0.00,SCT,,0.09,90.0,WeatherDisplay:10.37,2013-01-20 12:07:00,
2013-01-20 13:08:00,61.5,53.1,29.55,SSW,192,10.4,10.4,74,0.00,SCT,,0.09,90.0,WeatherDisplay:10.37,2013-01-20 12:08:00,
2013-01-20 13:12:00,61.5,53.1,29.55,South,171,15.0,15.0,74,0.00,SCT,,0.09,86.0,WeatherDisplay:10.37,2013-01-20 12:12:00,
2013-01-20 13:13:00,61.5,53.1,29.55,South,184,13.8,13.8,74,0.00,SCT,,0.09,84.0,WeatherDisplay:10.37,2013-01-20 12:13:00,
2013-01-20 13:14:00,61.5,53.1,29.55,South,188,13.8,13.8,74,0.00,SCT,,0.09,88.0,WeatherDisplay:10.37,2013-01-20 12:14:00,
2013-01-20 13:17:00,61.5,53.1,29.55,South,182,12.7,12.7,74,0.00,SCT,,0.09,90.0,WeatherDisplay:10.37,2013-01-20 12:17:00,
2013-01-20 13:18:00,61.5,53.1,29.55,South,170,10.4,10.4,74,0.00,SCT,,0.09,90.0,WeatherDisplay:10.37,2013-01-20 12:18:00,
2013-01-20 13:19:00,61.5,53.1,29.55,South,171,10.0,10.0,74,0.00,SCT,,0.09,91.0,WeatherDisplay:10.37,2013-01-20 12:19:00,
2013-01-20 13:22:00,61.5,52.8,29.55,SSE,159,11.5,11.5,73,0.00,SCT,,0.09,91.0,WeatherDisplay:10.37,2013-01-20 12:22:00,
2013-01-20 13:23:00,61.5,52.8,29.55,SSW,195,11.5,11.5,73,0.00,SCT,,0.09,90.0,WeatherDisplay:10.37,2013-01-20 12:23:00,
2013-01-20 13:24:00,61.5,52.8,29.55,SSW,197,16.1,16.1,73,0.00,SCT,,0.09,90.0,WeatherDisplay:10.37,2013-01-20 12:24:00,
2013-01-20 13:27:00,61.5,52.8,29.55,South,169,12.7,12.7,73,0.00,SCT,,0.09,79.0,WeatherDisplay:10.37,2013-01-20 12:27:00,
2013-01-20 13:28:00,61.5,52.8,29.55,South,171,11.5,11.5,73,0.00,SCT,,0.09,81.0,WeatherDisplay:10.37,2013-01-20 12:28:00,
2013-01-20 13:29:00,61.5,52.8,29.55,SSW,211,12.7,12.7,73,0.00,SCT,,0.09,77.0,WeatherDisplay:10.37,2013-01-20 12:29:00,
2013-01-20 13:32:00,61.5,52.8,29.55,SSE,162,12.7,12.7,73,0.00,SCT,,0.09,76.0,WeatherDisplay:10.37,2013-01-20 12:32:00,
2013-01-20 13:33:00,61.5,52.8,29.55,SSE,153,11.5,11.5,73,0.00,SCT,,0.09,76.0,WeatherDisplay:10.37,2013-01-20 12:33:00,
2013-01-20 13:34:00,61.5,52.8,29.55,SSW,193,12.0,12.0,73,0.00,SCT,,0.09,77.0,WeatherDisplay:10.37,2013-01-20 12:34:00,
2013-01-20 13:38:00,61.6,52.5,29.55,South,176,20.7,20.7,72,0.00,SCT,,0.09,77.0,WeatherDisplay:10.37,2013-01-20 12:38:00,
2013-01-20 13:40:00,61.6,52.5,29.55,South,173,19.6,19.6,72,0.00,SCT,,0.09,77.0,WeatherDisplay:10.37,2013-01-20 12:40:00,
2013-01-20 13:43:00,61.7,52.6,29.55,SSW,202,17.0,17.0,72,0.00,SCT,,0.09,84.0,WeatherDisplay:10.37,2013-01-20 12:43:00,
2013-01-20 13:44:00,61.7,52.6,29.55,SSW,194,17.3,17.3,72,0.00,SCT,,0.09,84.0,WeatherDisplay:10.37,2013-01-20 12:44:00,
2013-01-20 13:45:00,61.7,52.6,29.55,SSE,164,12.7,12.7,72,0.00,SCT,,0.09,104.0,WeatherDisplay:10.37,2013-01-20 12:45:00,
2013-01-20 13:48:00,61.7,52.6,29.55,SW,216,15.0,15.0,72,0.00,SCT,,0.09,113.0,WeatherDisplay:10.37,2013-01-20 12:48:00,
2013-01-20 13:49:00,61.7,52.6,29.55,SSW,196,10.4,10.4,72,0.00,SCT,,0.09,113.0,WeatherDisplay:10.37,2013-01-20 12:49:00,
2013-01-20 13:50:00,61.7,52.6,29.55,SSE,155,13.8,13.8,72,0.00,SCT,,0.09,123.0,WeatherDisplay:10.37,2013-01-20 12:50:00,
2013-01-20 13:53:00,61.7,52.6,29.55,South,178,8.1,8.1,72,0.00,SCT,,0.09,125.0,WeatherDisplay:10.37,2013-01-20 12:53:00,
2013-01-20 13:54:00,61.8,52.7,29.55,South,184,12.0,12.0,72,0.00,SCT,,0.09,125.0,WeatherDisplay:10.37,2013-01-20 12:54:00,
2013-01-20 13:55:00,61.8,52.7,29.55,SSW,198,15.0,15.0,72,0.00,SCT,,0.09,137.0,WeatherDisplay:10.37,2013-01-20 12:55:00,
2013-01-20 13:58:00,61.8,52.7,29.54,SSW,209,12.7,12.7,72,0.00,FEW,,0.09,148.0,WeatherDisplay:10.37,2013-01-20 12:58:00,
2013-01-20 13:59:00,61.8,52.7,29.55,SSW,203,13.0,13.0,72,0.00,FEW,,0.09,142.0,WeatherDisplay:10.37,2013-01-20 12:59:00,
2013-01-20 14:00:00,61.8,52.7,29.54,SSE,161,12.7,12.7,72,0.00,FEW,,0.09,132.0,WeatherDisplay:10.37,2013-01-20 13:00:00,
2013-01-20 14:03:00,61.9,52.8,29.54,South,177,10.4,10.4,72,0.00,FEW,,0.09,118.0,WeatherDisplay:10.37,2013-01-20 13:03:00,
2013-01-20 14:04:00,61.9,52.8,29.54,SSW,201,11.5,11.5,72,0.00,FEW,,0.09,109.0,WeatherDisplay:10.37,2013-01-20 13:04:00,
2013-01-20 14:05:00,61.9,52.8,29.54,SSE,162,9.0,9.0,72,0.00,FEW,,0.09,109.0,WeatherDisplay:10.37,2013-01-20 13:05:00,
2013-01-20 14:08:00,61.9,52.8,29.54,South,184,11.5,11.5,72,0.00,SCT,,0.09,109.0,WeatherDisplay:10.37,2013-01-20 13:08:00,
2013-01-20 14:09:00,61.9,52.8,29.54,South,182,17.0,17.0,72,0.00,SCT,,0.09,109.0,WeatherDisplay:10.37,2013-01-20 13:09:00,
2013-01-20 14:10:00,61.9,52.8,29.54,SSE,155,17.3,17.3,72,0.00,SCT,,0.09,95.0,WeatherDisplay:10.37,2013-01-20 13:10:00,
2013-01-20 14:13:00,61.9,52.4,29.54,SSE,159,15.0,15.0,71,0.00,SCT,,0.09,83.0,WeatherDisplay:10.37,2013-01-20 13:13:00,
2013-01-20 14:14:00,62.0,52.5,29.54,SSW,199,11.5,11.5,71,0.00,SCT,,0.09,79.0,WeatherDisplay:10.37,2013-01-20 13:14:00,
2013-01-20 14:15:00,61.9,52.4,29.53,SSE,165,6.9,6.9,71,0.00,SCT,,0.09,77.0,WeatherDisplay:10.37,2013-01-20 13:15:00,
2013-01-20 14:18:00,61.9,52.4,29.54,South,187,17.3,17.3,71,0.00,SCT,,0.09,81.0,WeatherDisplay:10.37,2013-01-20 13:18:00,
2013-01-20 14:19:00,61.9,52.4,29.54,SSW,193,13.8,13.8,71,0.00,SCT,,0.09,86.0,WeatherDisplay:10.37,2013-01-20 13:19:00,
2013-01-20 14:20:00,61.9,52.4,29.54,SSW,193,13.8,13.8,71,0.00,SCT,,0.09,86.0,WeatherDisplay:10.37,2013-01-20 13:20:00,
2013-01-20 14:23:00,61.9,52.4,29.54,South,186,6.0,6.0,71,0.00,SCT,,0.09,100.0,WeatherDisplay:10.37,2013-01-20 13:23:00,
2013-01-20 14:24:00,61.9,52.4,29.54,SE,146,5.8,5.8,71,0.00,SCT,,0.09,100.0,WeatherDisplay:10.37,2013-01-20 13:24:00,
2013-01-20 14:25:00,61.9,52.4,29.54,SSE,159,12.0,12.0,71,0.00,SCT,,0.09,107.0,WeatherDisplay:10.37,2013-01-20 13:25:00,
2013-01-20 14:29:00,61.9,52.4,29.54,SSW,205,17.3,17.3,71,0.00,SCT,,0.09,104.0,WeatherDisplay:10.37,2013-01-20 13:29:00,
2013-01-20 14:30:00,61.9,52.4,29.54,SW,214,12.7,12.7,71,0.00,SCT,,0.09,104.0,WeatherDisplay:10.37,2013-01-20 13:30:00,
2013-01-20 14:34:00,61.9,52.4,29.54,South,184,13.8,13.8,71,0.00,SCT,,0.09,98.0,WeatherDisplay:10.37,2013-01-20 13:34:00,
2013-01-20 14:35:00,61.9,52.4,29.54,SSW,196,11.5,11.5,71,0.00,SCT,,0.09,97.0,WeatherDisplay:10.37,2013-01-20 13:35:00,
2013-01-20 14:39:00,61.9,52.8,29.54,SW,215,13.8,13.8,72,0.00,SCT,,0.09,90.0,WeatherDisplay:10.37,2013-01-20 13:39:00,
2013-01-20 14:40:00,61.8,52.7,29.54,SSW,202,16.0,16.0,72,0.00,SCT,,0.09,86.0,WeatherDisplay:10.37,2013-01-20 13:40:00,
2013-01-20 14:41:00,61.8,52.7,29.54,SSW,206,18.4,18.4,72,0.00,SCT,,0.09,86.0,WeatherDisplay:10.37,2013-01-20 13:41:00,
2013-01-20 14:44:00,61.8,52.7,29.54,SSW,200,17.3,17.3,72,0.00,SCT,,0.09,83.0,WeatherDisplay:10.37,2013-01-20 13:44:00,
2013-01-20 14:45:00,61.7,52.6,29.54,SSW,209,17.3,17.3,72,0.00,SCT,,0.09,81.0,WeatherDisplay:10.37,2013-01-20 13:45:00,
2013-01-20 14:46:00,61.7,52.6,29.54,SSW,208,16.1,16.1,72,0.00,SCT,,0.09,81.0,WeatherDisplay:10.37,2013-01-20 13:46:00,
2013-01-20 14:49:00,61.6,52.9,29.54,South,190,15.0,15.0,73,0.00,SCT,,0.09,77.0,WeatherDisplay:10.37,2013-01-20 13:49:00,
2013-01-20 14:51:00,61.6,52.9,29.54,SW,218,16.1,16.1,73,0.00,SCT,,0.09,81.0,WeatherDisplay:10.37,2013-01-20 13:51:00,
2013-01-20 14:54:00,61.5,52.8,29.54,SSW,205,16.1,16.1,73,0.00,SCT,,0.09,76.0,WeatherDisplay:10.37,2013-01-20 13:54:00,
2013-01-20 14:56:00,61.4,53.0,29.55,SSW,195,17.3,17.3,74,0.00,SCT,,0.09,72.0,WeatherDisplay:10.37,2013-01-20 13:56:00,
2013-01-20 15:00:00,61.3,52.9,29.54,SSW,199,15.0,15.0,74,0.00,SCT,,0.09,49.0,WeatherDisplay:10.37,2013-01-20 14:00:00,
2013-01-20 15:01:00,61.2,52.8,29.54,SSW,196,13.8,13.8,74,0.00,SCT,,0.09,47.0,WeatherDisplay:10.37,2013-01-20 14:01:00,
2013-01-20 15:05:00,61.1,53.1,29.54,SSW,192,10.0,10.0,75,0.00,SCT,,0.09,46.0,WeatherDisplay:10.37,2013-01-20 14:05:00,
2013-01-20 15:06:00,61.1,53.1,29.54,SSW,205,11.5,11.5,75,0.00,SCT,,0.09,44.0,WeatherDisplay:10.37,2013-01-20 14:06:00,
2013-01-20 15:10:00,60.9,52.9,29.54,SW,232,9.2,9.2,75,0.00,SCT,,0.09,44.0,WeatherDisplay:10.37,2013-01-20 14:10:00,
2013-01-20 15:11:00,60.9,52.9,29.54,SSW,203,9.2,9.2,75,0.00,SCT,,0.09,46.0,WeatherDisplay:10.37,2013-01-20 14:11:00,
2013-01-20 15:15:00,60.7,53.1,29.54,SSW,213,10.4,10.4,76,0.00,SCT,,0.09,51.0,WeatherDisplay:10.37,2013-01-20 14:15:00,
2013-01-20 15:16:00,60.7,53.1,29.54,SSW,196,9.0,9.0,76,0.00,SCT,,0.09,51.0,WeatherDisplay:10.37,2013-01-20 14:16:00,
2013-01-20 15:17:00,60.7,53.1,29.54,South,187,11.5,11.5,76,0.00,SCT,,0.09,51.0,WeatherDisplay:10.37,2013-01-20 14:17:00,
2013-01-20 15:21:00,60.6,53.0,29.54,SSW,209,9.2,9.2,76,0.00,SCT,,0.09,49.0,WeatherDisplay:10.37,2013-01-20 14:21:00,
2013-01-20 15:22:00,60.5,52.9,29.54,South,188,11.5,11.5,76,0.00,SCT,,0.09,42.0,WeatherDisplay:10.37,2013-01-20 14:22:00,
2013-01-20 15:26:00,60.4,53.2,29.54,SSW,200,10.4,10.4,77,0.00,SCT,,0.09,33.0,WeatherDisplay:10.37,2013-01-20 14:26:00,
2013-01-20 15:27:00,60.4,53.2,29.54,SSW,192,9.2,9.2,77,0.00,SCT,,0.09,33.0,WeatherDisplay:10.37,2013-01-20 14:27:00,
2013-01-20 15:31:00,60.4,53.2,29.54,SW,220,11.5,11.5,77,0.00,BKN,,0.09,32.0,WeatherDisplay:10.37,2013-01-20 14:31:00,
2013-01-20 15:32:00,60.4,53.2,29.54,SSW,204,15.0,15.0,77,0.00,BKN,,0.09,32.0,WeatherDisplay:10.37,2013-01-20 14:32:00,
2013-01-20 15:36:00,60.3,53.1,29.55,SSW,197,12.0,12.0,77,0.00,BKN,,0.09,30.0,WeatherDisplay:10.37,2013-01-20 14:36:00,
2013-01-20 15:37:00,60.3,53.1,29.55,SSE,154,12.7,12.7,77,0.00,BKN,,0.09,33.0,WeatherDisplay:10.37,2013-01-20 14:37:00,
2013-01-20 15:42:00,60.3,53.1,29.54,SSW,204,9.2,9.2,77,0.00,BKN,,0.09,32.0,WeatherDisplay:10.37,2013-01-20 14:42:00,
2013-01-20 15:47:00,60.1,52.9,29.54,South,172,8.0,8.0,77,0.00,BKN,,0.09,23.0,WeatherDisplay:10.37,2013-01-20 14:47:00,
2013-01-20 15:52:00,60.1,52.9,29.54,South,177,8.1,8.1,77,0.00,BKN,,0.09,21.0,WeatherDisplay:10.37,2013-01-20 14:52:00,
2013-01-20 15:53:00,60.0,52.8,29.54,South,174,11.5,11.5,77,0.00,BKN,,0.09,19.0,WeatherDisplay:10.37,2013-01-20 14:53:00,
2013-01-20 15:57:00,60.0,53.1,29.54,SSW,213,14.0,14.0,78,0.00,BKN,,0.09,19.0,WeatherDisplay:10.37,2013-01-20 14:57:00,
2013-01-20 15:58:00,60.0,53.1,29.54,South,172,15.0,15.0,78,0.00,BKN,,0.09,19.0,WeatherDisplay:10.37,2013-01-20 14:58:00,
2013-01-20 16:02:00,59.9,53.0,29.54,South,176,8.1,8.1,78,0.00,BKN,,0.09,19.0,WeatherDisplay:10.37,2013-01-20 15:02:00,
2013-01-20 16:03:00,59.8,52.9,29.54,South,172,11.5,11.5,78,0.00,BKN,,0.09,19.0,WeatherDisplay:10.37,2013-01-20 15:03:00,
2013-01-20 16:07:00,59.7,52.8,29.54,South,176,14.0,14.0,78,0.00,BKN,,0.09,19.0,WeatherDisplay:10.37,2013-01-20 15:07:00,
2013-01-20 16:08:00,59.7,52.8,29.54,SSW,196,13.8,13.8,78,0.00,BKN,,0.09,19.0,WeatherDisplay:10.37,2013-01-20 15:08:00,
2013-01-20 16:12:00,59.7,52.8,29.54,South,186,11.5,11.5,78,0.00,BKN,,0.09,16.0,WeatherDisplay:10.37,2013-01-20 15:12:00,
2013-01-20 16:13:00,59.7,52.8,29.54,SSW,198,12.7,12.7,78,0.00,BKN,,0.09,16.0,WeatherDisplay:10.37,2013-01-20 15:13:00,
2013-01-20 16:14:00,59.6,53.1,29.54,SW,218,13.8,13.8,79,0.00,BKN,,0.09,14.0,WeatherDisplay:10.37,2013-01-20 15:14:00,
2013-01-20 16:18:00,59.5,53.0,29.54,SSW,212,8.1,8.1,79,0.00,BKN,,0.09,12.0,WeatherDisplay:10.37,2013-01-20 15:18:00,
2013-01-20 16:19:00,59.5,53.0,29.54,South,186,10.4,10.4,79,0.00,BKN,,0.09,12.0,WeatherDisplay:10.37,2013-01-20 15:19:00,
2013-01-20 16:23:00,59.4,52.9,29.55,SSW,211,11.5,11.5,79,0.00,BKN,,0.09,11.0,WeatherDisplay:10.37,2013-01-20 15:23:00,
2013-01-20 16:24:00,59.4,53.2,29.54,SSW,194,13.8,13.8,80,0.00,BKN,,0.09,11.0,WeatherDisplay:10.37,2013-01-20 15:24:00,
2013-01-20 16:28:00,59.2,53.0,29.55,SSW,195,12.7,12.7,80,0.00,BKN,,0.09,9.0,WeatherDisplay:10.37,2013-01-20 15:28:00,
2013-01-20 16:29:00,59.2,53.0,29.55,South,184,12.7,12.7,80,0.00,BKN,,0.09,9.0,WeatherDisplay:10.37,2013-01-20 15:29:00,
2013-01-20 16:30:00,59.1,52.9,29.55,SSW,207,6.9,6.9,80,0.00,BKN,,0.09,9.0,WeatherDisplay:10.37,2013-01-20 15:30:00,
2013-01-20 16:33:00,58.9,52.7,29.55,SSW,213,8.1,8.1,80,0.00,BKN,,0.09,12.0,WeatherDisplay:10.37,2013-01-20 15:33:00,
2013-01-20 16:34:00,58.9,52.7,29.55,SSW,200,11.5,11.5,80,0.00,BKN,,0.09,12.0,WeatherDisplay:10.37,2013-01-20 15:34:00,
2013-01-20 16:35:00,58.9,53.1,29.55,SSW,199,7.0,7.0,81,0.00,BKN,,0.09,12.0,WeatherDisplay:10.37,2013-01-20 15:35:00,
2013-01-20 16:38:00,58.9,53.1,29.55,SSW,213,8.1,8.1,81,0.00,BKN,,0.09,12.0,WeatherDisplay:10.37,2013-01-20 15:38:00,
2013-01-20 16:39:00,58.9,53.1,29.55,SSW,213,7.0,7.0,81,0.00,BKN,,0.09,12.0,WeatherDisplay:10.37,2013-01-20 15:39:00,
2013-01-20 16:40:00,58.9,53.1,29.55,SSW,206,10.0,10.0,81,0.00,BKN,,0.09,12.0,WeatherDisplay:10.37,2013-01-20 15:40:00,
2013-01-20 16:43:00,58.9,53.1,29.55,SW,223,9.2,9.2,81,0.00,BKN,,0.09,9.0,WeatherDisplay:10.37,2013-01-20 15:43:00,
2013-01-20 16:44:00,58.9,53.1,29.54,SW,225,6.9,6.9,81,0.00,BKN,,0.09,7.0,WeatherDisplay:10.37,2013-01-20 15:44:00,
2013-01-20 16:45:00,58.9,53.4,29.55,SW,230,5.0,5.0,82,0.00,BKN,,0.09,7.0,WeatherDisplay:10.37,2013-01-20 15:45:00,
2013-01-20 16:48:00,58.8,53.3,29.54,SSW,209,4.6,4.6,82,0.00,BKN,,0.09,5.0,WeatherDisplay:10.37,2013-01-20 15:48:00,
2013-01-20 16:49:00,58.8,53.3,29.54,SSW,197,5.0,5.7,82,0.00,BKN,,0.09,5.0,WeatherDisplay:10.37,2013-01-20 15:49:00,
2013-01-20 16:50:00,58.7,53.2,29.54,SSW,209,8.1,8.1,82,0.00,BKN,,0.09,0.0,WeatherDisplay:10.37,2013-01-20 15:50:00,
2013-01-20 16:53:00,58.6,53.5,29.54,SSW,195,6.9,6.9,83,0.01,RA,,0.10,0.0,WeatherDisplay:10.37,2013-01-20 15:53:00,
2013-01-20 16:54:00,58.5,53.0,29.54,SSW,202,5.8,5.8,82,0.01,RA,,0.10,0.0,WeatherDisplay:10.37,2013-01-20 15:54:00,
2013-01-20 16:55:00,58.5,53.0,29.54,SSW,207,5.8,5.8,82,0.01,RA,,0.10,0.0,WeatherDisplay:10.37,2013-01-20 15:55:00,
2013-01-20 16:58:00,58.4,53.3,29.54,South,189,8.1,8.1,83,0.01,RA,,0.10,0.0,WeatherDisplay:10.37,2013-01-20 15:58:00,
2013-01-20 16:59:00,58.4,53.3,29.54,SSW,199,8.1,8.1,83,0.01,RA,,0.10,0.0,WeatherDisplay:10.37,2013-01-20 15:59:00,
2013-01-20 17:00:00,58.4,53.3,29.54,SW,220,8.1,8.1,83,0.01,RA,,0.10,0.0,WeatherDisplay:10.37,2013-01-20 16:00:00,
2013-01-20 17:04:00,58.3,53.2,29.54,South,184,6.9,6.9,83,0.01,CLR,,0.10,0.0,WeatherDisplay:10.37,2013-01-20 16:04:00,
2013-01-20 17:05:00,58.3,53.2,29.54,SSW,205,8.1,8.1,83,0.01,CLR,,0.10,0.0,WeatherDisplay:10.37,2013-01-20 16:05:00,
2013-01-20 17:09:00,58.2,53.4,29.54,South,186,5.8,5.8,84,0.01,OVC,,0.10,0.0,WeatherDisplay:10.37,2013-01-20 16:09:00,
2013-01-20 17:10:00,58.1,53.3,29.54,SSW,196,5.8,5.8,84,0.01,OVC,,0.10,0.0,WeatherDisplay:10.37,2013-01-20 16:10:00,
2013-01-20 17:14:00,58.1,53.3,29.54,SSW,213,10.4,10.4,84,0.01,OVC,,0.10,0.0,WeatherDisplay:10.37,2013-01-20 16:14:00,
2013-01-20 17:15:00,58.1,53.3,29.54,SSW,196,10.4,10.4,84,0.01,OVC,,0.10,0.0,WeatherDisplay:10.37,2013-01-20 16:15:00,
2013-01-20 17:19:00,58.0,53.2,29.54,SSW,194,11.5,11.5,84,0.01,OVC,,0.10,0.0,WeatherDisplay:10.37,2013-01-20 16:19:00,
2013-01-20 17:20:00,58.0,53.2,29.54,SSW,206,10.4,10.4,84,0.01,OVC,,0.10,0.0,WeatherDisplay:10.37,2013-01-20 16:20:00,
2013-01-20 17:24:00,57.9,53.1,29.54,SSW,206,7.0,7.0,84,0.01,OVC,,0.10,0.0,WeatherDisplay:10.37,2013-01-20 16:24:00,
2013-01-20 17:25:00,57.9,53.1,29.54,South,187,9.0,9.0,84,0.01,OVC,,0.10,0.0,WeatherDisplay:10.37,2013-01-20 16:25:00,
2013-01-20 17:26:00,57.9,53.1,29.54,SSW,200,6.9,6.9,84,0.01,OVC,,0.10,0.0,WeatherDisplay:10.37,2013-01-20 16:26:00,
2013-01-20 17:29:00,57.9,53.1,29.54,North,360,10.4,10.4,84,0.01,OVC,,0.10,0.0,WeatherDisplay:10.37,2013-01-20 16:29:00,
2013-01-20 17:30:00,57.9,53.1,29.54,North,360,10.4,10.4,84,0.01,OVC,,0.10,0.0,WeatherDisplay:10.37,2013-01-20 16:30:00,
2013-01-20 17:31:00,57.9,53.4,29.54,SSW,194,8.1,8.1,85,0.01,OVC,,0.10,0.0,WeatherDisplay:10.37,2013-01-20 16:31:00,
2013-01-20 17:34:00,57.8,53.3,29.54,South,189,8.1,8.1,85,0.01,OVC,,0.10,0.0,WeatherDisplay:10.37,2013-01-20 16:34:00,
2013-01-20 17:35:00,57.9,53.4,29.54,SSW,196,8.1,8.1,85,0.01,OVC,,0.10,0.0,WeatherDisplay:10.37,2013-01-20 16:35:00,
2013-01-20 17:36:00,57.8,53.3,29.54,South,186,5.8,5.8,85,0.01,OVC,,0.10,0.0,WeatherDisplay:10.37,2013-01-20 16:36:00,
2013-01-20 17:40:00,57.8,53.3,29.54,SSE,153,8.1,8.1,85,0.01,OVC,,0.10,0.0,WeatherDisplay:10.37,2013-01-20 16:40:00,
2013-01-20 17:41:00,57.8,53.3,29.54,South,190,8.1,8.1,85,0.01,OVC,,0.10,0.0,WeatherDisplay:10.37,2013-01-20 16:41:00,
2013-01-20 17:45:00,57.7,53.2,29.54,South,176,10.4,10.4,85,0.02,RA,,0.11,0.0,WeatherDisplay:10.37,2013-01-20 16:45:00,
2013-01-20 17:46:00,57.7,53.2,29.54,South,184,11.5,11.5,85,0.02,RA,,0.11,0.0,WeatherDisplay:10.37,2013-01-20 16:46:00,
2013-01-20 17:50:00,57.6,53.1,29.54,South,190,11.5,11.5,85,0.03,RA,,0.12,0.0,WeatherDisplay:10.37,2013-01-20 16:50:00,
2013-01-20 17:51:00,57.5,53.0,29.54,SSW,192,11.5,11.5,85,0.03,RA,,0.12,0.0,WeatherDisplay:10.37,2013-01-20 16:51:00,
2013-01-20 17:55:00,57.4,52.9,29.54,SSW,196,11.5,11.5,85,0.02,RA,,0.12,0.0,WeatherDisplay:10.37,2013-01-20 16:55:00,
2013-01-20 17:56:00,57.3,52.8,29.54,South,170,9.2,9.2,85,0.02,RA,,0.12,0.0,WeatherDisplay:10.37,2013-01-20 16:56:00,
2013-01-20 18:00:00,57.2,52.7,29.54,SSW,202,7.0,7.0,85,0.03,RA,,0.13,0.0,WeatherDisplay:10.37,2013-01-20 17:00:00,
2013-01-20 18:01:00,57.2,53.0,29.54,South,190,9.2,9.2,86,0.03,RA,,0.13,0.0,WeatherDisplay:10.37,2013-01-20 17:01:00,
2013-01-20 18:02:00,57.2,53.0,29.54,SSW,194,6.9,6.9,86,0.03,RA,,0.13,0.0,WeatherDisplay:10.37,2013-01-20 17:02:00,
2013-01-20 18:05:00,57.2,53.0,29.54,SSW,213,8.1,8.1,86,0.03,RA,,0.13,0.0,WeatherDisplay:10.37,2013-01-20 17:05:00,
2013-01-20 18:06:00,57.2,53.0,29.54,SSW,211,11.5,11.5,86,0.03,RA,,0.13,0.0,WeatherDisplay:10.37,2013-01-20 17:06:00,
2013-01-20 18:07:00,57.1,53.0,29.54,SSW,209,8.1,8.1,86,0.03,RA,,0.13,0.0,WeatherDisplay:10.37,2013-01-20 17:07:00,
2013-01-20 18:10:00,57.0,52.9,29.54,SSW,201,8.1,8.1,86,0.03,,,0.13,0.0,WeatherDisplay:10.37,2013-01-20 17:10:00,
2013-01-20 18:11:00,57.0,52.9,29.54,SSW,207,8.1,8.1,86,0.04,RA,,0.14,0.0,WeatherDisplay:10.37,2013-01-20 17:11:00,
2013-01-20 18:12:00,57.0,52.9,29.54,SW,227,8.1,8.1,86,0.04,RA,,0.14,0.0,WeatherDisplay:10.37,2013-01-20 17:12:00,
2013-01-20 18:16:00,56.9,52.8,29.54,SW,225,6.9,6.9,86,0.04,RA,,0.14,0.0,WeatherDisplay:10.37,2013-01-20 17:16:00,
2013-01-20 18:17:00,56.9,52.8,29.54,SW,221,7.0,7.0,86,0.04,RA,,0.14,0.0,WeatherDisplay:10.37,2013-01-20 17:17:00,
2013-01-20 18:21:00,56.9,52.8,29.54,SW,227,4.6,4.6,86,0.04,,,0.14,0.0,WeatherDisplay:10.37,2013-01-20 17:21:00,
2013-01-20 18:22:00,56.9,53.1,29.54,SW,234,4.6,4.6,87,0.04,,,0.14,0.0,WeatherDisplay:10.37,2013-01-20 17:22:00,
2013-01-20 18:26:00,56.8,53.0,29.54,SW,234,1.1,0.0,87,0.04,CLR,,0.14,0.0,WeatherDisplay:10.37,2013-01-20 17:26:00,
2013-01-20 18:27:00,56.8,53.0,29.54,SW,234,0.0,0.0,87,0.04,CLR,,0.14,0.0,WeatherDisplay:10.37,2013-01-20 17:27:00,
2013-01-20 18:31:00,56.8,53.0,29.54,SW,234,0.0,0.0,87,0.05,RA,,0.15,0.0,WeatherDisplay:10.37,2013-01-20 17:31:00,
2013-01-20 18:32:00,56.8,53.0,29.54,SW,234,0.0,0.0,87,0.05,RA,,0.15,0.0,WeatherDisplay:10.37,2013-01-20 17:32:00,
2013-01-20 18:36:00,56.7,52.9,29.54,SW,234,0.0,0.0,87,0.05,RA,,0.15,0.0,WeatherDisplay:10.37,2013-01-20 17:36:00,
2013-01-20 18:37:00,56.7,52.9,29.54,SW,234,0.0,0.0,87,0.05,RA,,0.15,0.0,WeatherDisplay:10.37,2013-01-20 17:37:00,
2013-01-20 18:41:00,56.7,52.9,29.54,SW,234,2.3,2.3,87,0.05,,,0.15,0.0,WeatherDisplay:10.37,2013-01-20 17:41:00,
2013-01-20 18:42:00,56.7,52.9,29.54,SW,234,2.3,2.3,87,0.05,CLR,,0.15,0.0,WeatherDisplay:10.37,2013-01-20 17:42:00,
2013-01-20 18:46:00,56.7,52.9,29.54,SW,234,0.0,0.0,87,0.04,CLR,,0.15,0.0,WeatherDisplay:10.37,2013-01-20 17:46:00,
2013-01-20 18:47:00,56.7,52.9,29.54,SW,234,1.1,0.0,87,0.04,CLR,,0.15,0.0,WeatherDisplay:10.37,2013-01-20 17:47:00,
2013-01-20 18:51:00,56.7,52.9,29.54,SW,234,2.3,2.3,87,0.03,CLR,,0.15,0.0,WeatherDisplay:10.37,2013-01-20 17:51:00,
2013-01-20 18:52:00,56.6,52.8,29.54,SW,234,3.5,3.5,87,0.03,CLR,,0.15,0.0,WeatherDisplay:10.37,2013-01-20 17:52:00,
2013-01-20 18:53:00,56.6,52.8,29.54,SW,234,3.5,3.5,87,0.03,CLR,,0.15,0.0,WeatherDisplay:10.37,2013-01-20 17:53:00,
2013-01-20 18:56:00,56.6,52.8,29.54,SW,234,2.3,2.3,87,0.03,CLR,,0.15,0.0,WeatherDisplay:10.37,2013-01-20 17:56:00,
2013-01-20 18:57:00,56.6,52.8,29.54,SW,234,0.0,0.0,87,0.03,CLR,,0.15,0.0,WeatherDisplay:10.37,2013-01-20 17:57:00,
2013-01-20 18:58:00,56.6,52.8,29.54,SW,234,0.0,0.0,87,0.03,CLR,,0.15,0.0,WeatherDisplay:10.37,2013-01-20 17:58:00,
2013-01-20 19:01:00,56.5,52.7,29.54,SW,234,3.0,3.0,87,0.02,CLR,,0.15,0.0,WeatherDisplay:10.37,2013-01-20 18:01:00,
2013-01-20 19:02:00,56.5,53.0,29.54,SW,234,3.5,3.5,88,0.02,CLR,,0.15,0.0,WeatherDisplay:10.37,2013-01-20 18:02:00,
2013-01-20 19:03:00,56.5,53.0,29.54,SW,234,3.5,3.5,88,0.02,CLR,,0.15,0.0,WeatherDisplay:10.37,2013-01-20 18:03:00,
2013-01-20 19:06:00,56.4,52.9,29.53,SW,234,3.5,3.5,88,0.02,CLR,,0.15,0.0,WeatherDisplay:10.37,2013-01-20 18:06:00,
2013-01-20 19:07:00,56.4,52.9,29.53,SW,234,3.5,3.5,88,0.02,CLR,,0.15,0.0,WeatherDisplay:10.37,2013-01-20 18:07:00,
2013-01-20 19:08:00,56.4,52.9,29.53,SW,234,3.5,3.5,88,0.02,CLR,,0.15,0.0,WeatherDisplay:10.37,2013-01-20 18:08:00,
2013-01-20 19:11:00,56.3,52.8,29.53,SW,234,0.0,0.0,88,0.01,CLR,,0.15,0.0,WeatherDisplay:10.37,2013-01-20 18:11:00,
2013-01-20 19:12:00,56.3,52.8,29.53,SW,234,0.0,0.0,88,0.01,CLR,,0.15,0.0,WeatherDisplay:10.37,2013-01-20 18:12:00,
2013-01-20 19:13:00,56.3,52.8,29.53,SW,234,3.5,3.5,88,0.01,CLR,,0.15,0.0,WeatherDisplay:10.37,2013-01-20 18:13:00,
2013-01-20 19:14:00,56.3,52.8,29.53,SW,234,2.3,2.3,88,0.01,CLR,,0.15,0.0,WeatherDisplay:10.37,2013-01-20 18:14:00,
2013-01-20 19:17:00,56.3,52.8,29.53,SW,234,0.0,0.0,88,0.01,CLR,,0.15,0.0,WeatherDisplay:10.37,2013-01-20 18:17:00,
2013-01-20 19:18:00,56.2,52.7,29.53,SW,234,0.0,0.7,88,0.01,CLR,,0.15,0.0,WeatherDisplay:10.37,2013-01-20 18:18:00,
2013-01-20 19:19:00,56.2,52.7,29.53,SW,234,2.3,2.3,88,0.01,CLR,,0.15,0.0,WeatherDisplay:10.37,2013-01-20 18:19:00,
2013-01-20 19:22:00,56.2,52.7,29.53,SW,234,3.5,3.5,88,0.01,CLR,,0.15,0.0,WeatherDisplay:10.37,2013-01-20 18:22:00,
2013-01-20 19:23:00,56.1,52.6,29.53,SW,234,0.0,0.0,88,0.01,CLR,,0.15,0.0,WeatherDisplay:10.37,2013-01-20 18:23:00,
2013-01-20 19:24:00,56.1,52.6,29.53,SW,234,0.0,0.0,88,0.01,CLR,,0.15,0.0,WeatherDisplay:10.37,2013-01-20 18:24:00,
2013-01-20 19:27:00,56.1,52.6,29.53,SW,234,0.0,0.0,88,0.01,CLR,,0.15,0.0,WeatherDisplay:10.37,2013-01-20 18:27:00,
2013-01-20 19:29:00,56.1,52.6,29.53,SW,234,0.0,0.0,88,0.01,CLR,,0.15,0.0,WeatherDisplay:10.37,2013-01-20 18:29:00,
2013-01-20 19:32:00,56.0,52.8,29.53,SW,234,0.0,0.0,89,0.00,CLR,,0.15,0.0,WeatherDisplay:10.37,2013-01-20 18:32:00,
2013-01-20 19:34:00,56.0,52.8,29.53,SW,234,0.0,0.0,89,0.00,CLR,,0.15,0.0,WeatherDisplay:10.37,2013-01-20 18:34:00,
2013-01-20 19:37:00,56.0,52.8,29.53,SW,234,0.0,0.0,89,0.00,CLR,,0.15,0.0,WeatherDisplay:10.37,2013-01-20 18:37:00,
2013-01-20 19:39:00,55.9,52.7,29.53,SW,234,0.0,0.0,89,0.00,CLR,,0.15,0.0,WeatherDisplay:10.37,2013-01-20 18:39:00,
2013-01-20 19:42:00,55.9,52.7,29.52,SW,234,0.0,0.0,89,0.00,CLR,,0.15,0.0,WeatherDisplay:10.37,2013-01-20 18:42:00,
2013-01-20 19:44:00,55.9,52.7,29.52,SW,234,0.0,0.0,89,0.00,CLR,,0.15,0.0,WeatherDisplay:10.37,2013-01-20 18:44:00,
2013-01-20 19:47:00,55.8,52.6,29.52,SW,234,0.0,0.0,89,0.00,CLR,,0.15,0.0,WeatherDisplay:10.37,2013-01-20 18:47:00,
2013-01-20 19:49:00,55.8,52.6,29.52,SW,234,0.0,0.0,89,0.00,CLR,,0.15,0.0,WeatherDisplay:10.37,2013-01-20 18:49:00,
2013-01-20 19:53:00,55.7,52.5,29.52,SW,234,0.0,0.0,89,0.00,CLR,,0.15,0.0,WeatherDisplay:10.37,2013-01-20 18:53:00,
2013-01-20 19:55:00,55.7,52.5,29.52,SW,234,0.0,0.0,89,0.00,CLR,,0.15,0.0,WeatherDisplay:10.37,2013-01-20 18:55:00,
2013-01-20 19:58:00,55.7,52.5,29.52,SW,234,0.0,0.0,89,0.00,CLR,,0.15,0.0,WeatherDisplay:10.37,2013-01-20 18:58:00,
2013-01-20 20:00:00,55.6,52.4,29.52,SW,234,0.0,0.0,89,0.00,CLR,,0.15,0.0,WeatherDisplay:10.37,2013-01-20 19:00:00,
2013-01-20 20:03:00,55.6,52.4,29.52,SW,234,0.0,0.0,89,0.00,CLR,,0.15,0.0,WeatherDisplay:10.37,2013-01-20 19:03:00,
2013-01-20 20:05:00,55.6,52.4,29.52,SW,234,0.0,0.0,89,0.00,CLR,,0.15,0.0,WeatherDisplay:10.37,2013-01-20 19:05:00,
2013-01-20 20:08:00,55.6,52.4,29.52,SW,234,0.0,0.0,89,0.00,CLR,,0.15,0.0,WeatherDisplay:10.37,2013-01-20 19:08:00,
2013-01-20 20:09:00,55.6,52.4,29.52,SW,234,0.0,0.0,89,0.00,CLR,,0.15,0.0,WeatherDisplay:10.37,2013-01-20 19:09:00,
2013-01-20 20:10:00,55.6,52.4,29.52,SW,234,0.0,0.0,89,0.00,CLR,,0.15,0.0,WeatherDisplay:10.37,2013-01-20 19:10:00,
2013-01-20 20:13:00,55.5,52.3,29.52,SW,234,0.0,0.0,89,0.00,CLR,,0.15,0.0,WeatherDisplay:10.37,2013-01-20 19:13:00,
2013-01-20 20:14:00,55.5,52.3,29.51,SW,234,0.0,0.0,89,0.00,CLR,,0.15,0.0,WeatherDisplay:10.37,2013-01-20 19:14:00,
2013-01-20 20:15:00,55.5,52.3,29.51,SW,234,0.0,0.0,89,0.00,CLR,,0.15,0.0,WeatherDisplay:10.37,2013-01-20 19:15:00,
2013-01-20 20:16:00,55.5,52.3,29.51,SW,234,0.0,0.0,89,0.00,CLR,,0.15,0.0,WeatherDisplay:10.37,2013-01-20 19:16:00,
2013-01-20 20:18:00,55.4,52.2,29.52,SW,234,0.0,0.0,89,0.00,CLR,,0.15,0.0,WeatherDisplay:10.37,2013-01-20 19:18:00,
2013-01-20 20:19:00,55.4,52.2,29.52,SW,234,0.0,0.0,89,0.00,CLR,,0.15,0.0,WeatherDisplay:10.37,2013-01-20 19:19:00,
2013-01-20 20:20:00,55.4,52.2,29.52,SW,234,0.0,0.0,89,0.00,CLR,,0.15,0.0,WeatherDisplay:10.37,2013-01-20 19:20:00,
2013-01-20 20:21:00,55.4,52.2,29.52,SW,234,0.0,0.0,89,0.00,CLR,,0.15,0.0,WeatherDisplay:10.37,2013-01-20 19:21:00,
2013-01-20 20:23:00,55.3,52.1,29.52,SW,234,0.0,0.0,89,0.00,CLR,,0.15,0.0,WeatherDisplay:10.37,2013-01-20 19:23:00,
2013-01-20 20:24:00,55.3,52.1,29.52,SW,234,0.0,0.0,89,0.00,CLR,,0.15,0.0,WeatherDisplay:10.37,2013-01-20 19:24:00,
2013-01-20 20:25:00,55.3,52.1,29.52,SW,234,0.0,0.0,89,0.00,CLR,,0.15,0.0,WeatherDisplay:10.37,2013-01-20 19:25:00,
2013-01-20 20:26:00,55.3,52.1,29.52,SW,234,0.0,0.0,89,0.00,CLR,,0.15,0.0,WeatherDisplay:10.37,2013-01-20 19:26:00,
2013-01-20 20:28:00,55.3,52.1,29.52,SW,234,0.0,0.0,89,0.00,CLR,,0.15,0.0,WeatherDisplay:10.37,2013-01-20 19:28:00,
2013-01-20 20:29:00,55.2,52.0,29.52,SW,234,0.0,0.0,89,0.00,CLR,,0.15,0.0,WeatherDisplay:10.37,2013-01-20 19:29:00,
2013-01-20 20:31:00,55.2,52.0,29.51,SW,234,0.0,0.0,89,0.00,CLR,,0.15,0.0,WeatherDisplay:10.37,2013-01-20 19:31:00,
2013-01-20 20:33:00,55.2,52.0,29.51,SW,234,0.0,0.0,89,0.00,CLR,,0.15,0.0,WeatherDisplay:10.37,2013-01-20 19:33:00,
2013-01-20 20:34:00,55.2,52.0,29.51,SW,234,0.0,0.0,89,0.00,CLR,,0.15,0.0,WeatherDisplay:10.37,2013-01-20 19:34:00,
2013-01-20 20:36:00,55.2,52.0,29.51,SW,234,0.0,0.0,89,0.00,CLR,,0.15,0.0,WeatherDisplay:10.37,2013-01-20 19:36:00,
2013-01-20 20:38:00,55.1,51.9,29.51,SW,234,0.0,0.0,89,0.00,CLR,,0.15,0.0,WeatherDisplay:10.37,2013-01-20 19:38:00,
2013-01-20 20:39:00,55.1,51.9,29.51,SW,234,0.0,0.0,89,0.00,CLR,,0.15,0.0,WeatherDisplay:10.37,2013-01-20 19:39:00,
2013-01-20 20:41:00,55.1,51.9,29.51,SW,234,1.1,1.1,89,0.00,CLR,,0.15,0.0,WeatherDisplay:10.37,2013-01-20 19:41:00,
2013-01-20 20:43:00,55.0,51.8,29.51,SW,234,1.1,0.0,89,0.00,CLR,,0.15,0.0,WeatherDisplay:10.37,2013-01-20 19:43:00,
2013-01-20 20:44:00,55.0,51.8,29.51,SW,234,0.0,0.0,89,0.00,CLR,,0.15,0.0,WeatherDisplay:10.37,2013-01-20 19:44:00,
2013-01-20 20:46:00,55.0,51.8,29.51,SW,234,1.1,1.1,89,0.00,CLR,,0.15,0.0,WeatherDisplay:10.37,2013-01-20 19:46:00,
2013-01-20 20:48:00,55.0,51.8,29.51,SW,234,2.3,2.3,89,0.00,CLR,,0.15,0.0,WeatherDisplay:10.37,2013-01-20 19:48:00,
2013-01-20 20:49:00,54.9,51.7,29.51,SW,234,2.3,2.3,89,0.00,CLR,,0.15,0.0,WeatherDisplay:10.37,2013-01-20 19:49:00,
2013-01-20 20:51:00,54.9,51.7,29.51,SW,234,1.1,0.0,89,0.00,CLR,,0.15,0.0,WeatherDisplay:10.37,2013-01-20 19:51:00,
2013-01-20 20:52:00,54.9,51.7,29.51,SW,234,1.1,0.0,89,0.00,CLR,,0.15,0.0,WeatherDisplay:10.37,2013-01-20 19:52:00,
2013-01-20 20:53:00,54.9,52.0,29.51,SW,234,0.0,0.0,90,0.00,CLR,,0.15,0.0,WeatherDisplay:10.37,2013-01-20 19:53:00,
2013-01-20 20:54:00,54.9,52.0,29.51,SW,234,0.0,0.0,90,0.00,CLR,,0.15,0.0,WeatherDisplay:10.37,2013-01-20 19:54:00,
2013-01-20 20:56:00,54.9,52.0,29.51,SW,234,0.0,0.0,90,0.00,CLR,,0.15,0.0,WeatherDisplay:10.37,2013-01-20 19:56:00,
2013-01-20 20:57:00,54.9,52.0,29.51,SW,234,0.0,0.0,90,0.00,CLR,,0.15,0.0,WeatherDisplay:10.37,2013-01-20 19:57:00,
2013-01-20 20:59:00,54.8,51.9,29.51,SW,234,0.0,0.0,90,0.00,CLR,,0.15,0.0,WeatherDisplay:10.37,2013-01-20 19:59:00,
2013-01-20 21:01:00,54.8,51.9,29.50,SW,234,0.0,0.0,90,0.00,CLR,,0.15,0.0,WeatherDisplay:10.37,2013-01-20 20:01:00,
2013-01-20 21:02:00,54.8,51.9,29.51,SW,234,0.0,0.0,90,0.00,CLR,,0.15,0.0,WeatherDisplay:10.37,2013-01-20 20:02:00,
2013-01-20 21:04:00,54.8,51.9,29.50,SW,234,0.0,0.0,90,0.00,CLR,,0.15,0.0,WeatherDisplay:10.37,2013-01-20 20:04:00,
2013-01-20 21:06:00,54.8,51.9,29.51,SW,234,1.0,1.0,90,0.00,CLR,,0.15,0.0,WeatherDisplay:10.37,2013-01-20 20:06:00,
2013-01-20 21:07:00,54.8,51.9,29.51,SW,233,2.3,2.3,90,0.00,CLR,,0.15,0.0,WeatherDisplay:10.37,2013-01-20 20:07:00,
2013-01-20 21:09:00,54.8,51.9,29.51,SW,233,2.3,2.3,90,0.01,RA,,0.16,0.0,WeatherDisplay:10.37,2013-01-20 20:09:00,
2013-01-20 21:12:00,54.7,51.8,29.50,SW,233,0.0,0.0,90,0.01,RA,,0.16,0.0,WeatherDisplay:10.37,2013-01-20 20:12:00,
2013-01-20 21:14:00,54.7,51.5,29.50,SW,233,0.0,0.0,89,0.01,RA,,0.16,0.0,WeatherDisplay:10.37,2013-01-20 20:14:00,
2013-01-20 21:17:00,54.6,51.7,29.50,SW,233,0.0,0.0,90,0.01,RA,,0.16,0.0,WeatherDisplay:10.37,2013-01-20 20:17:00,
2013-01-20 21:19:00,54.6,51.7,29.50,SW,233,0.0,0.0,90,0.01,,,0.16,0.0,WeatherDisplay:10.37,2013-01-20 20:19:00,
2013-01-20 21:20:00,54.6,51.7,29.50,SW,233,0.0,0.0,90,0.01,CLR,,0.16,0.0,WeatherDisplay:10.37,2013-01-20 20:20:00,
2013-01-20 21:22:00,54.6,51.7,29.50,SW,233,0.0,0.0,90,0.01,CLR,,0.16,0.0,WeatherDisplay:10.37,2013-01-20 20:22:00,
2013-01-20 21:23:00,54.6,51.7,29.50,SW,233,0.0,0.0,90,0.01,CLR,,0.16,0.0,WeatherDisplay:10.37,2013-01-20 20:23:00,
2013-01-20 21:24:00,54.6,51.7,29.50,SW,233,0.0,0.0,90,0.01,CLR,,0.16,0.0,WeatherDisplay:10.37,2013-01-20 20:24:00,
2013-01-20 21:25:00,54.6,51.7,29.50,SW,233,0.0,0.0,90,0.01,CLR,,0.16,0.0,WeatherDisplay:10.37,2013-01-20 20:25:00,
2013-01-20 21:28:00,54.6,51.7,29.50,SW,233,0.0,0.0,90,0.01,CLR,,0.16,0.0,WeatherDisplay:10.37,2013-01-20 20:28:00,
2013-01-20 21:29:00,54.6,51.7,29.50,SW,233,0.0,0.0,90,0.01,CLR,,0.16,0.0,WeatherDisplay:10.37,2013-01-20 20:29:00,
2013-01-20 21:31:00,54.6,51.7,29.50,SW,233,2.3,2.3,90,0.01,CLR,,0.17,0.0,WeatherDisplay:10.37,2013-01-20 20:31:00,
2013-01-20 21:33:00,54.6,51.7,29.50,SW,232,2.3,2.3,90,0.02,RA,,0.17,0.0,WeatherDisplay:10.37,2013-01-20 20:33:00,
2013-01-20 21:34:00,54.6,51.7,29.50,SW,232,1.1,0.0,90,0.02,RA,,0.17,0.0,WeatherDisplay:10.37,2013-01-20 20:34:00,
2013-01-20 21:36:00,54.6,51.7,29.50,SW,232,1.1,1.1,90,0.02,RA,,0.17,0.0,WeatherDisplay:10.37,2013-01-20 20:36:00,
2013-01-20 21:38:00,54.6,51.7,29.50,SW,232,0.0,0.0,90,0.02,RA,,0.17,0.0,WeatherDisplay:10.37,2013-01-20 20:38:00,
2013-01-20 21:40:00,54.6,51.7,29.50,SW,232,0.0,0.0,90,0.02,RA,,0.17,0.0,WeatherDisplay:10.37,2013-01-20 20:40:00,
2013-01-20 21:41:00,54.6,51.7,29.50,SW,232,0.0,0.0,90,0.02,RA,,0.17,0.0,WeatherDisplay:10.37,2013-01-20 20:41:00,
2013-01-20 21:43:00,54.6,51.7,29.50,SW,232,0.0,0.0,90,0.02,,,0.17,0.0,WeatherDisplay:10.37,2013-01-20 20:43:00,
2013-01-20 21:45:00,54.6,51.7,29.50,SW,232,0.0,0.0,90,0.02,CLR,,0.17,0.0,WeatherDisplay:10.37,2013-01-20 20:45:00,
2013-01-20 21:46:00,54.6,51.7,29.50,SW,232,0.0,0.0,90,0.02,CLR,,0.17,0.0,WeatherDisplay:10.37,2013-01-20 20:46:00,
2013-01-20 21:48:00,54.5,51.6,29.50,SSE,167,2.0,2.0,90,0.02,CLR,,0.17,0.0,WeatherDisplay:10.37,2013-01-20 20:48:00,
2013-01-20 21:50:00,54.5,51.6,29.50,SSE,167,2.3,0.0,90,0.02,CLR,,0.17,0.0,WeatherDisplay:10.37,2013-01-20 20:50:00,
2013-01-20 21:52:00,54.5,51.6,29.50,South,175,5.0,5.0,90,0.02,CLR,,0.17,0.0,WeatherDisplay:10.37,2013-01-20 20:52:00,
2013-01-20 21:53:00,54.6,51.7,29.50,South,180,5.8,5.8,90,0.02,CLR,,0.17,0.0,WeatherDisplay:10.37,2013-01-20 20:53:00,
2013-01-20 21:54:00,54.6,51.7,29.50,South,180,3.5,3.5,90,0.02,CLR,,0.17,0.0,WeatherDisplay:10.37,2013-01-20 20:54:00,
2013-01-20 21:55:00,54.6,51.7,29.50,South,180,4.0,4.0,90,0.02,CLR,,0.17,0.0,WeatherDisplay:10.37,2013-01-20 20:55:00,
2013-01-20 21:57:00,54.6,51.7,29.50,South,180,3.5,3.5,90,0.02,CLR,,0.17,0.0,WeatherDisplay:10.37,2013-01-20 20:57:00,
2013-01-20 21:59:00,54.6,51.7,29.50,South,180,1.1,0.0,90,0.02,CLR,,0.17,0.0,WeatherDisplay:10.37,2013-01-20 20:59:00,
2013-01-20 22:00:00,54.7,51.8,29.50,South,180,0.0,0.9,90,0.02,CLR,,0.17,0.0,WeatherDisplay:10.37,2013-01-20 21:00:00,
2013-01-20 22:02:00,54.7,51.8,29.50,South,180,3.5,3.5,90,0.02,CLR,,0.17,0.0,WeatherDisplay:10.37,2013-01-20 21:02:00,
2013-01-20 22:04:00,54.7,51.8,29.50,South,180,1.1,1.1,90,0.02,CLR,,0.17,0.0,WeatherDisplay:10.37,2013-01-20 21:04:00,
2013-01-20 22:05:00,54.7,51.8,29.50,South,180,0.0,0.0,90,0.02,CLR,,0.17,0.0,WeatherDisplay:10.37,2013-01-20 21:05:00,
2013-01-20 22:08:00,54.7,51.8,29.50,South,180,1.1,0.0,90,0.01,CLR,,0.17,0.0,WeatherDisplay:10.37,2013-01-20 21:08:00,
2013-01-20 22:09:00,54.8,51.9,29.50,South,180,0.0,0.0,90,0.01,CLR,,0.17,0.0,WeatherDisplay:10.37,2013-01-20 21:09:00,
2013-01-20 22:10:00,54.8,51.9,29.50,South,180,0.0,0.0,90,0.01,CLR,,0.17,0.0,WeatherDisplay:10.37,2013-01-20 21:10:00,
2013-01-20 22:13:00,54.8,51.9,29.50,South,180,0.0,0.0,90,0.01,CLR,,0.17,0.0,WeatherDisplay:10.37,2013-01-20 21:13:00,
2013-01-20 22:14:00,54.8,51.9,29.50,South,180,2.3,2.3,90,0.01,CLR,,0.17,0.0,WeatherDisplay:10.37,2013-01-20 21:14:00,
2013-01-20 22:15:00,54.8,51.9,29.50,South,180,3.5,3.5,90,0.01,CLR,,0.17,0.0,WeatherDisplay:10.37,2013-01-20 21:15:00,
2013-01-20 22:18:00,54.9,52.0,29.50,SW,233,3.5,3.5,90,0.01,CLR,,0.17,0.0,WeatherDisplay:10.37,2013-01-20 21:18:00,
2013-01-20 22:19:00,54.9,52.0,29.50,SW,236,4.6,4.6,90,0.01,CLR,,0.17,0.0,WeatherDisplay:10.37,2013-01-20 21:19:00,
2013-01-20 22:20:00,54.9,52.3,29.50,WSW,242,6.9,6.9,91,0.01,CLR,,0.17,0.0,WeatherDisplay:10.37,2013-01-20 21:20:00,
2013-01-20 22:23:00,55.0,52.4,29.50,WSW,258,10.0,10.0,91,0.01,CLR,,0.17,0.0,WeatherDisplay:10.37,2013-01-20 21:23:00,
2013-01-20 22:24:00,55.1,52.5,29.50,West,278,11.5,11.5,91,0.01,CLR,,0.17,0.0,WeatherDisplay:10.37,2013-01-20 21:24:00,
2013-01-20 22:26:00,55.1,52.5,29.50,West,266,15.0,15.0,91,0.02,RA,,0.18,0.0,WeatherDisplay:10.37,2013-01-20 21:26:00,
2013-01-20 22:29:00,55.0,52.1,29.50,West,259,8.1,8.1,90,0.02,RA,,0.18,0.0,WeatherDisplay:10.37,2013-01-20 21:29:00,
2013-01-20 22:31:00,54.9,52.0,29.50,West,267,9.0,9.0,90,0.02,RA,,0.18,0.0,WeatherDisplay:10.37,2013-01-20 21:31:00,
2013-01-20 22:34:00,54.6,51.7,29.49,West,271,11.5,11.5,90,0.02,RA,,0.19,0.0,WeatherDisplay:10.37,2013-01-20 21:34:00,
2013-01-20 22:35:00,54.6,51.7,29.49,WNW,284,11.5,11.5,90,0.02,RA,,0.19,0.0,WeatherDisplay:10.37,2013-01-20 21:35:00,
2013-01-20 22:36:00,54.5,51.6,29.49,West,275,10.4,10.4,90,0.02,RA,,0.19,0.0,WeatherDisplay:10.37,2013-01-20 21:36:00,
2013-01-20 22:39:00,54.3,51.4,29.49,WNW,296,11.5,11.5,90,0.02,RA,,0.19,0.0,WeatherDisplay:10.37,2013-01-20 21:39:00,
2013-01-20 22:40:00,54.3,51.4,29.49,WNW,300,9.2,9.2,90,0.02,RA,,0.19,0.0,WeatherDisplay:10.37,2013-01-20 21:40:00,
2013-01-20 22:41:00,54.2,51.3,29.49,WNW,294,7.0,7.0,90,0.02,RA,,0.19,0.0,WeatherDisplay:10.37,2013-01-20 21:41:00,
2013-01-20 22:44:00,54.0,51.1,29.49,West,278,6.9,6.9,90,0.02,CLR,,0.19,0.0,WeatherDisplay:10.37,2013-01-20 21:44:00,
2013-01-20 22:45:00,54.0,51.1,29.50,West,273,4.6,4.6,90,0.02,CLR,,0.19,0.0,WeatherDisplay:10.37,2013-01-20 21:45:00,
2013-01-20 22:46:00,53.9,51.0,29.50,West,273,4.0,4.0,90,0.02,CLR,,0.19,0.0,WeatherDisplay:10.37,2013-01-20 21:46:00,
2013-01-20 22:49:00,53.8,50.9,29.51,WSW,257,6.0,6.0,90,0.02,CLR,,0.23,0.0,WeatherDisplay:10.37,2013-01-20 21:49:00,
2013-01-20 22:50:00,53.8,50.9,29.51,West,270,8.1,8.1,90,0.06,RA,,0.23,0.0,WeatherDisplay:10.37,2013-01-20 21:50:00,
2013-01-20 22:51:00,53.8,50.9,29.50,West,279,9.0,9.0,90,0.08,RA,,0.25,0.0,WeatherDisplay:10.37,2013-01-20 21:51:00,
2013-01-20 22:54:00,53.6,51.0,29.51,West,261,11.5,11.5,91,0.12,RA,,0.32,0.0,WeatherDisplay:10.37,2013-01-20 21:54:00,
2013-01-20 22:55:00,53.6,51.0,29.51,West,265,11.5,11.5,91,0.15,RA,,0.32,0.0,WeatherDisplay:10.37,2013-01-20 21:55:00,
2013-01-20 22:56:00,53.5,50.6,29.51,West,266,11.5,11.5,90,0.17,RA,,0.34,0.0,WeatherDisplay:10.37,2013-01-20 21:56:00,
2013-01-20 23:00:00,53.4,50.5,29.51,WSW,258,10.4,10.4,90,0.21,RA,,0.38,0.0,WeatherDisplay:10.37,2013-01-20 22:00:00,
2013-01-20 23:01:00,53.3,50.7,29.51,West,261,10.4,10.4,91,0.21,RA,,0.38,0.0,WeatherDisplay:10.37,2013-01-20 22:01:00,
2013-01-20 23:05:00,53.1,50.5,29.51,WSW,257,9.2,9.2,91,0.21,RA,,0.38,0.0,WeatherDisplay:10.37,2013-01-20 22:05:00,
2013-01-20 23:06:00,53.1,50.5,29.51,WNW,282,10.4,10.4,91,0.21,RA,,0.38,0.0,WeatherDisplay:10.37,2013-01-20 22:06:00,
2013-01-20 23:10:00,53.0,50.4,29.50,NW,304,8.1,8.1,91,0.21,,,0.38,0.0,WeatherDisplay:10.37,2013-01-20 22:10:00,
2013-01-20 23:11:00,53.0,50.4,29.50,NW,306,6.9,6.9,91,0.21,CLR,,0.38,0.0,WeatherDisplay:10.37,2013-01-20 22:11:00,
2013-01-20 23:15:00,52.9,50.3,29.50,NW,305,9.2,9.2,91,0.21,CLR,,0.38,0.0,WeatherDisplay:10.37,2013-01-20 22:15:00,
2013-01-20 23:16:00,52.9,50.3,29.49,WNW,294,9.0,9.0,91,0.21,CLR,,0.38,0.0,WeatherDisplay:10.37,2013-01-20 22:16:00,
2013-01-20 23:17:00,52.9,50.3,29.49,West,279,10.4,10.4,91,0.21,CLR,,0.38,0.0,WeatherDisplay:10.37,2013-01-20 22:17:00,
2013-01-20 23:20:00,52.8,50.2,29.49,WNW,298,5.8,5.8,91,0.21,CLR,,0.38,0.0,WeatherDisplay:10.37,2013-01-20 22:20:00,
2013-01-20 23:21:00,52.8,50.2,29.49,WNW,296,8.1,8.1,91,0.21,CLR,,0.38,0.0,WeatherDisplay:10.37,2013-01-20 22:21:00,
2013-01-20 23:22:00,52.8,50.2,29.50,NW,304,8.0,8.0,91,0.21,CLR,,0.38,0.0,WeatherDisplay:10.37,2013-01-20 22:22:00,
2013-01-20 23:25:00,52.7,50.1,29.49,NW,304,5.8,5.8,91,0.21,CLR,,0.38,0.0,WeatherDisplay:10.37,2013-01-20 22:25:00,
2013-01-20 23:26:00,52.7,50.1,29.49,NW,304,5.0,5.0,91,0.20,CLR,,0.38,0.0,WeatherDisplay:10.37,2013-01-20 22:26:00,
2013-01-20 23:27:00,52.7,50.1,29.49,NW,304,5.8,5.8,91,0.20,CLR,,0.38,0.0,WeatherDisplay:10.37,2013-01-20 22:27:00,
2013-01-20 23:30:00,52.8,50.2,29.49,West,270,6.9,6.9,91,0.22,RA,,0.40,0.0,WeatherDisplay:10.37,2013-01-20 22:30:00,
2013-01-20 23:31:00,52.8,50.2,29.49,West,264,6.9,6.9,91,0.22,RA,,0.40,0.0,WeatherDisplay:10.37,2013-01-20 22:31:00,
2013-01-20 23:32:00,52.7,50.1,29.49,West,273,6.9,6.9,91,0.21,RA,,0.40,0.0,WeatherDisplay:10.37,2013-01-20 22:32:00,
2013-01-20 23:35:00,52.7,50.1,29.49,WNW,284,8.0,8.0,91,0.21,RA,,0.41,0.0,WeatherDisplay:10.37,2013-01-20 22:35:00,
2013-01-20 23:36:00,52.7,50.1,29.49,WNW,286,8.1,8.1,91,0.22,RA,,0.41,0.0,WeatherDisplay:10.37,2013-01-20 22:36:00,
2013-01-20 23:37:00,52.7,50.1,29.48,WNW,291,9.0,9.0,91,0.22,RA,,0.41,0.0,WeatherDisplay:10.37,2013-01-20 22:37:00,
2013-01-20 23:40:00,52.6,50.0,29.48,WNW,290,11.5,11.5,91,0.22,RA,,0.41,0.0,WeatherDisplay:10.37,2013-01-20 22:40:00,
2013-01-20 23:41:00,52.6,50.0,29.48,WNW,286,11.5,11.5,91,0.22,RA,,0.41,0.0,WeatherDisplay:10.37,2013-01-20 22:41:00,
2013-01-20 23:42:00,52.6,50.0,29.48,WNW,292,11.5,11.5,91,0.22,RA,,0.41,0.0,WeatherDisplay:10.37,2013-01-20 22:42:00,
2013-01-20 23:43:00,52.6,50.0,29.48,WNW,288,8.1,8.1,91,0.22,RA,,0.41,0.0,WeatherDisplay:10.37,2013-01-20 22:43:00,
2013-01-20 23:45:00,52.6,50.0,29.48,West,275,9.0,9.0,91,0.22,RA,,0.41,0.0,WeatherDisplay:10.37,2013-01-20 22:45:00,
2013-01-20 23:46:00,52.6,50.0,29.48,West,274,10.4,10.4,91,0.22,,,0.41,0.0,WeatherDisplay:10.37,2013-01-20 22:46:00,
2013-01-20 23:47:00,52.6,50.0,29.48,West,265,9.2,9.2,91,0.22,,,0.41,0.0,WeatherDisplay:10.37,2013-01-20 22:47:00,
2013-01-20 23:48:00,52.6,50.0,29.48,West,265,8.1,8.1,91,0.22,CLR,,0.41,0.0,WeatherDisplay:10.37,2013-01-20 22:48:00,
2013-01-20 23:50:00,52.5,49.9,29.49,West,271,6.9,6.9,91,0.18,CLR,,0.41,0.0,WeatherDisplay:10.37,2013-01-20 22:50:00,
2013-01-20 23:52:00,52.5,49.9,29.49,West,271,3.5,3.5,91,0.16,CLR,,0.41,0.0,WeatherDisplay:10.37,2013-01-20 22:52:00,
2013-01-20 23:53:00,52.5,49.9,29.48,West,271,3.5,3.5,91,0.12,CLR,,0.41,0.0,WeatherDisplay:10.37,2013-01-20 22:53:00,
2013-01-20 23:56:00,52.5,49.9,29.49,West,271,4.0,4.0,91,0.07,CLR,,0.41,0.0,WeatherDisplay:10.37,2013-01-20 22:56:00,
2013-01-20 23:57:00,52.5,49.9,29.49,West,271,5.8,5.8,91,0.04,CLR,,0.41,0.0,WeatherDisplay:10.37,2013-01-20 22:57:00,
2013-01-20 23:58:00,52.5,49.9,29.49,West,271,5.8,5.8,91,0.04,CLR,,0.41,0.0,WeatherDisplay:10.37,2013-01-20 22:58:00,